<?xml version="1.0" encoding="UTF-8" standalone="no" ?>
<gpx xmlns="http://www.topografix.com/GPX/1/1" xmlns:xsi="http://www.w3.org/2001/XMLSchema-instance" xsi:schemaLocation="http://www.topografix.com/GPX/1/1 http://www.topografix.com/GPX/1/1/gpx.xsd" version="1.1" creator="VisuGPX - https://www.visugpx.com">
  <metadata>
    <name>labenne</name>
    <desc><![CDATA[sortie labenne]]></desc>
  </metadata>
  <trk>
    <name><![CDATA[28-JUIN-14 15:51:31]]></name>
    <trkseg>
      <trkpt lat="43.59918" lon="-1.47086">
        <ele>14.56</ele>
        <time>2014-06-28T13:38:53Z</time>
      </trkpt>
      <trkpt lat="43.59918" lon="-1.47086">
        <ele>9.27</ele>
        <time>2014-06-28T13:38:55Z</time>
      </trkpt>
      <trkpt lat="43.59918" lon="-1.47086">
        <ele>13.12</ele>
        <time>2014-06-28T13:38:56Z</time>
      </trkpt>
      <trkpt lat="43.59918" lon="-1.47086">
        <ele>9.75</ele>
        <time>2014-06-28T13:38:57Z</time>
      </trkpt>
      <trkpt lat="43.59919" lon="-1.47086">
        <ele>10.23</ele>
        <time>2014-06-28T13:39:11Z</time>
      </trkpt>
      <trkpt lat="43.59918" lon="-1.47087">
        <ele>9.75</ele>
        <time>2014-06-28T13:39:28Z</time>
      </trkpt>
      <trkpt lat="43.59918" lon="-1.47086">
        <ele>9.75</ele>
        <time>2014-06-28T13:39:47Z</time>
      </trkpt>
      <trkpt lat="43.59918" lon="-1.47085">
        <ele>10.23</ele>
        <time>2014-06-28T13:40:01Z</time>
      </trkpt>
      <trkpt lat="43.59918" lon="-1.47086">
        <ele>10.23</ele>
        <time>2014-06-28T13:40:10Z</time>
      </trkpt>
      <trkpt lat="43.59908" lon="-1.47093">
        <ele>9.27</ele>
        <time>2014-06-28T13:40:18Z</time>
      </trkpt>
      <trkpt lat="43.59894" lon="-1.4709">
        <ele>8.31</ele>
        <time>2014-06-28T13:40:25Z</time>
      </trkpt>
      <trkpt lat="43.59885" lon="-1.47092">
        <ele>6.87</ele>
        <time>2014-06-28T13:40:27Z</time>
      </trkpt>
      <trkpt lat="43.59882" lon="-1.47093">
        <ele>6.87</ele>
        <time>2014-06-28T13:40:28Z</time>
      </trkpt>
      <trkpt lat="43.5987" lon="-1.47075">
        <ele>7.35</ele>
        <time>2014-06-28T13:40:31Z</time>
      </trkpt>
      <trkpt lat="43.59849" lon="-1.4704">
        <ele>6.39</ele>
        <time>2014-06-28T13:40:40Z</time>
      </trkpt>
      <trkpt lat="43.59828" lon="-1.47014">
        <ele>5.91</ele>
        <time>2014-06-28T13:40:47Z</time>
      </trkpt>
      <trkpt lat="43.59793" lon="-1.47007">
        <ele>6.39</ele>
        <time>2014-06-28T13:40:56Z</time>
      </trkpt>
      <trkpt lat="43.59767" lon="-1.47005">
        <ele>5.91</ele>
        <time>2014-06-28T13:41:02Z</time>
      </trkpt>
      <trkpt lat="43.59758" lon="-1.47004">
        <ele>5.91</ele>
        <time>2014-06-28T13:41:04Z</time>
      </trkpt>
      <trkpt lat="43.59744" lon="-1.47002">
        <ele>4.94</ele>
        <time>2014-06-28T13:41:07Z</time>
      </trkpt>
      <trkpt lat="43.59698" lon="-1.46993">
        <ele>4.94</ele>
        <time>2014-06-28T13:41:17Z</time>
      </trkpt>
      <trkpt lat="43.59673" lon="-1.46979">
        <ele>4.46</ele>
        <time>2014-06-28T13:41:23Z</time>
      </trkpt>
      <trkpt lat="43.59664" lon="-1.46976">
        <ele>4.94</ele>
        <time>2014-06-28T13:41:25Z</time>
      </trkpt>
      <trkpt lat="43.59655" lon="-1.46973">
        <ele>4.46</ele>
        <time>2014-06-28T13:41:27Z</time>
      </trkpt>
      <trkpt lat="43.59638" lon="-1.46965">
        <ele>5.91</ele>
        <time>2014-06-28T13:41:31Z</time>
      </trkpt>
      <trkpt lat="43.5961" lon="-1.46947">
        <ele>5.42</ele>
        <time>2014-06-28T13:41:38Z</time>
      </trkpt>
      <trkpt lat="43.59598" lon="-1.4694">
        <ele>5.42</ele>
        <time>2014-06-28T13:41:41Z</time>
      </trkpt>
      <trkpt lat="43.59591" lon="-1.46934">
        <ele>4.94</ele>
        <time>2014-06-28T13:41:43Z</time>
      </trkpt>
      <trkpt lat="43.59579" lon="-1.469">
        <ele>5.42</ele>
        <time>2014-06-28T13:41:50Z</time>
      </trkpt>
      <trkpt lat="43.59572" lon="-1.46885">
        <ele>4.94</ele>
        <time>2014-06-28T13:41:53Z</time>
      </trkpt>
      <trkpt lat="43.59554" lon="-1.46843">
        <ele>4.94</ele>
        <time>2014-06-28T13:42:00Z</time>
      </trkpt>
      <trkpt lat="43.59525" lon="-1.46741">
        <ele>5.42</ele>
        <time>2014-06-28T13:42:16Z</time>
      </trkpt>
      <trkpt lat="43.5951" lon="-1.4669">
        <ele>5.42</ele>
        <time>2014-06-28T13:42:26Z</time>
      </trkpt>
      <trkpt lat="43.59509" lon="-1.4668">
        <ele>4.94</ele>
        <time>2014-06-28T13:42:28Z</time>
      </trkpt>
      <trkpt lat="43.59505" lon="-1.46663">
        <ele>4.94</ele>
        <time>2014-06-28T13:42:31Z</time>
      </trkpt>
      <trkpt lat="43.5948" lon="-1.46601">
        <ele>4.46</ele>
        <time>2014-06-28T13:42:42Z</time>
      </trkpt>
      <trkpt lat="43.59463" lon="-1.46592">
        <ele>4.46</ele>
        <time>2014-06-28T13:42:47Z</time>
      </trkpt>
      <trkpt lat="43.59455" lon="-1.46596">
        <ele>4.46</ele>
        <time>2014-06-28T13:42:49Z</time>
      </trkpt>
      <trkpt lat="43.59437" lon="-1.46603">
        <ele>5.42</ele>
        <time>2014-06-28T13:42:54Z</time>
      </trkpt>
      <trkpt lat="43.59383" lon="-1.46625">
        <ele>5.42</ele>
        <time>2014-06-28T13:43:08Z</time>
      </trkpt>
      <trkpt lat="43.59321" lon="-1.46647">
        <ele>4.94</ele>
        <time>2014-06-28T13:43:22Z</time>
      </trkpt>
      <trkpt lat="43.59303" lon="-1.46659">
        <ele>4.94</ele>
        <time>2014-06-28T13:43:26Z</time>
      </trkpt>
      <trkpt lat="43.59275" lon="-1.4669">
        <ele>4.46</ele>
        <time>2014-06-28T13:43:34Z</time>
      </trkpt>
      <trkpt lat="43.59257" lon="-1.46685">
        <ele>4.46</ele>
        <time>2014-06-28T13:43:39Z</time>
      </trkpt>
      <trkpt lat="43.59252" lon="-1.46673">
        <ele>4.94</ele>
        <time>2014-06-28T13:43:41Z</time>
      </trkpt>
      <trkpt lat="43.59247" lon="-1.46661">
        <ele>4.94</ele>
        <time>2014-06-28T13:43:43Z</time>
      </trkpt>
      <trkpt lat="43.59237" lon="-1.46637">
        <ele>4.94</ele>
        <time>2014-06-28T13:43:47Z</time>
      </trkpt>
      <trkpt lat="43.59225" lon="-1.46619">
        <ele>4.94</ele>
        <time>2014-06-28T13:43:51Z</time>
      </trkpt>
      <trkpt lat="43.59216" lon="-1.46589">
        <ele>4.94</ele>
        <time>2014-06-28T13:43:56Z</time>
      </trkpt>
      <trkpt lat="43.59211" lon="-1.46558">
        <ele>5.42</ele>
        <time>2014-06-28T13:44:01Z</time>
      </trkpt>
      <trkpt lat="43.59184" lon="-1.46547">
        <ele>5.42</ele>
        <time>2014-06-28T13:44:08Z</time>
      </trkpt>
      <trkpt lat="43.59173" lon="-1.4655">
        <ele>4.94</ele>
        <time>2014-06-28T13:44:11Z</time>
      </trkpt>
      <trkpt lat="43.59161" lon="-1.46553">
        <ele>4.46</ele>
        <time>2014-06-28T13:44:14Z</time>
      </trkpt>
      <trkpt lat="43.59112" lon="-1.46568">
        <ele>4.94</ele>
        <time>2014-06-28T13:44:25Z</time>
      </trkpt>
      <trkpt lat="43.59084" lon="-1.46599">
        <ele>4.46</ele>
        <time>2014-06-28T13:44:35Z</time>
      </trkpt>
      <trkpt lat="43.59079" lon="-1.46606">
        <ele>4.46</ele>
        <time>2014-06-28T13:44:38Z</time>
      </trkpt>
      <trkpt lat="43.5907" lon="-1.4662">
        <ele>3.5</ele>
        <time>2014-06-28T13:44:43Z</time>
      </trkpt>
      <trkpt lat="43.59052" lon="-1.46681">
        <ele>3.98</ele>
        <time>2014-06-28T13:44:55Z</time>
      </trkpt>
      <trkpt lat="43.59033" lon="-1.46744">
        <ele>3.5</ele>
        <time>2014-06-28T13:45:05Z</time>
      </trkpt>
      <trkpt lat="43.59028" lon="-1.46759">
        <ele>3.02</ele>
        <time>2014-06-28T13:45:08Z</time>
      </trkpt>
      <trkpt lat="43.59012" lon="-1.46816">
        <ele>3.5</ele>
        <time>2014-06-28T13:45:19Z</time>
      </trkpt>
      <trkpt lat="43.59008" lon="-1.46826">
        <ele>3.5</ele>
        <time>2014-06-28T13:45:21Z</time>
      </trkpt>
      <trkpt lat="43.59002" lon="-1.46851">
        <ele>3.98</ele>
        <time>2014-06-28T13:45:26Z</time>
      </trkpt>
      <trkpt lat="43.58999" lon="-1.46864">
        <ele>3.98</ele>
        <time>2014-06-28T13:45:28Z</time>
      </trkpt>
      <trkpt lat="43.58961" lon="-1.4691">
        <ele>3.5</ele>
        <time>2014-06-28T13:45:38Z</time>
      </trkpt>
      <trkpt lat="43.58934" lon="-1.46942">
        <ele>3.5</ele>
        <time>2014-06-28T13:45:46Z</time>
      </trkpt>
      <trkpt lat="43.58922" lon="-1.46943">
        <ele>3.5</ele>
        <time>2014-06-28T13:45:50Z</time>
      </trkpt>
      <trkpt lat="43.58903" lon="-1.4694">
        <ele>3.02</ele>
        <time>2014-06-28T13:45:56Z</time>
      </trkpt>
      <trkpt lat="43.58879" lon="-1.46943">
        <ele>3.5</ele>
        <time>2014-06-28T13:46:04Z</time>
      </trkpt>
      <trkpt lat="43.58861" lon="-1.4693">
        <ele>3.5</ele>
        <time>2014-06-28T13:46:08Z</time>
      </trkpt>
      <trkpt lat="43.58822" lon="-1.4693">
        <ele>3.5</ele>
        <time>2014-06-28T13:46:17Z</time>
      </trkpt>
      <trkpt lat="43.58819" lon="-1.46922">
        <ele>4.46</ele>
        <time>2014-06-28T13:46:20Z</time>
      </trkpt>
      <trkpt lat="43.58799" lon="-1.46883">
        <ele>3.02</ele>
        <time>2014-06-28T13:46:29Z</time>
      </trkpt>
      <trkpt lat="43.58793" lon="-1.46866">
        <ele>3.5</ele>
        <time>2014-06-28T13:46:32Z</time>
      </trkpt>
      <trkpt lat="43.58799" lon="-1.46818">
        <ele>3.5</ele>
        <time>2014-06-28T13:46:41Z</time>
      </trkpt>
      <trkpt lat="43.58777" lon="-1.46768">
        <ele>3.5</ele>
        <time>2014-06-28T13:46:53Z</time>
      </trkpt>
      <trkpt lat="43.58748" lon="-1.46712">
        <ele>4.46</ele>
        <time>2014-06-28T13:47:06Z</time>
      </trkpt>
      <trkpt lat="43.58709" lon="-1.46672">
        <ele>4.94</ele>
        <time>2014-06-28T13:47:19Z</time>
      </trkpt>
      <trkpt lat="43.58704" lon="-1.46669">
        <ele>5.42</ele>
        <time>2014-06-28T13:47:20Z</time>
      </trkpt>
      <trkpt lat="43.58688" lon="-1.46655">
        <ele>3.98</ele>
        <time>2014-06-28T13:47:24Z</time>
      </trkpt>
      <trkpt lat="43.58677" lon="-1.46647">
        <ele>4.94</ele>
        <time>2014-06-28T13:47:27Z</time>
      </trkpt>
      <trkpt lat="43.58673" lon="-1.46643">
        <ele>4.94</ele>
        <time>2014-06-28T13:47:30Z</time>
      </trkpt>
      <trkpt lat="43.5867" lon="-1.4664">
        <ele>4.46</ele>
        <time>2014-06-28T13:47:33Z</time>
      </trkpt>
      <trkpt lat="43.5867" lon="-1.46637">
        <ele>4.94</ele>
        <time>2014-06-28T13:47:36Z</time>
      </trkpt>
      <trkpt lat="43.58685" lon="-1.46656">
        <ele>4.46</ele>
        <time>2014-06-28T13:47:46Z</time>
      </trkpt>
      <trkpt lat="43.58699" lon="-1.46664">
        <ele>4.94</ele>
        <time>2014-06-28T13:47:51Z</time>
      </trkpt>
      <trkpt lat="43.587" lon="-1.46646">
        <ele>4.46</ele>
        <time>2014-06-28T13:47:57Z</time>
      </trkpt>
      <trkpt lat="43.58698" lon="-1.46632">
        <ele>4.46</ele>
        <time>2014-06-28T13:48:00Z</time>
      </trkpt>
      <trkpt lat="43.58684" lon="-1.46574">
        <ele>4.46</ele>
        <time>2014-06-28T13:48:12Z</time>
      </trkpt>
      <trkpt lat="43.58674" lon="-1.46524">
        <ele>4.46</ele>
        <time>2014-06-28T13:48:23Z</time>
      </trkpt>
      <trkpt lat="43.58667" lon="-1.46482">
        <ele>4.46</ele>
        <time>2014-06-28T13:48:32Z</time>
      </trkpt>
      <trkpt lat="43.58655" lon="-1.4643">
        <ele>4.46</ele>
        <time>2014-06-28T13:48:43Z</time>
      </trkpt>
      <trkpt lat="43.58654" lon="-1.46383">
        <ele>4.94</ele>
        <time>2014-06-28T13:48:54Z</time>
      </trkpt>
      <trkpt lat="43.58648" lon="-1.46358">
        <ele>5.42</ele>
        <time>2014-06-28T13:48:59Z</time>
      </trkpt>
      <trkpt lat="43.58645" lon="-1.46337">
        <ele>5.42</ele>
        <time>2014-06-28T13:49:04Z</time>
      </trkpt>
      <trkpt lat="43.58646" lon="-1.46301">
        <ele>5.42</ele>
        <time>2014-06-28T13:49:11Z</time>
      </trkpt>
      <trkpt lat="43.58634" lon="-1.46235">
        <ele>4.46</ele>
        <time>2014-06-28T13:49:23Z</time>
      </trkpt>
      <trkpt lat="43.58617" lon="-1.46227">
        <ele>5.91</ele>
        <time>2014-06-28T13:49:29Z</time>
      </trkpt>
      <trkpt lat="43.58588" lon="-1.46235">
        <ele>5.91</ele>
        <time>2014-06-28T13:49:40Z</time>
      </trkpt>
      <trkpt lat="43.58573" lon="-1.46238">
        <ele>5.91</ele>
        <time>2014-06-28T13:49:45Z</time>
      </trkpt>
      <trkpt lat="43.58542" lon="-1.46241">
        <ele>5.42</ele>
        <time>2014-06-28T13:49:57Z</time>
      </trkpt>
      <trkpt lat="43.58495" lon="-1.46251">
        <ele>4.94</ele>
        <time>2014-06-28T13:50:08Z</time>
      </trkpt>
      <trkpt lat="43.58454" lon="-1.46247">
        <ele>4.94</ele>
        <time>2014-06-28T13:50:18Z</time>
      </trkpt>
      <trkpt lat="43.58436" lon="-1.46245">
        <ele>4.46</ele>
        <time>2014-06-28T13:50:22Z</time>
      </trkpt>
      <trkpt lat="43.58416" lon="-1.46246">
        <ele>4.46</ele>
        <time>2014-06-28T13:50:26Z</time>
      </trkpt>
      <trkpt lat="43.58371" lon="-1.46254">
        <ele>4.46</ele>
        <time>2014-06-28T13:50:36Z</time>
      </trkpt>
      <trkpt lat="43.5834" lon="-1.46265">
        <ele>4.94</ele>
        <time>2014-06-28T13:50:43Z</time>
      </trkpt>
      <trkpt lat="43.58319" lon="-1.46266">
        <ele>4.94</ele>
        <time>2014-06-28T13:50:48Z</time>
      </trkpt>
      <trkpt lat="43.58306" lon="-1.46268">
        <ele>4.94</ele>
        <time>2014-06-28T13:50:51Z</time>
      </trkpt>
      <trkpt lat="43.58256" lon="-1.46272">
        <ele>6.39</ele>
        <time>2014-06-28T13:51:05Z</time>
      </trkpt>
      <trkpt lat="43.58222" lon="-1.46261">
        <ele>6.87</ele>
        <time>2014-06-28T13:51:16Z</time>
      </trkpt>
      <trkpt lat="43.58185" lon="-1.46238">
        <ele>5.91</ele>
        <time>2014-06-28T13:51:27Z</time>
      </trkpt>
      <trkpt lat="43.58148" lon="-1.46221">
        <ele>5.91</ele>
        <time>2014-06-28T13:51:38Z</time>
      </trkpt>
      <trkpt lat="43.58118" lon="-1.46208">
        <ele>5.42</ele>
        <time>2014-06-28T13:51:47Z</time>
      </trkpt>
      <trkpt lat="43.58075" lon="-1.462">
        <ele>5.91</ele>
        <time>2014-06-28T13:51:57Z</time>
      </trkpt>
      <trkpt lat="43.58055" lon="-1.46198">
        <ele>5.42</ele>
        <time>2014-06-28T13:52:02Z</time>
      </trkpt>
      <trkpt lat="43.58035" lon="-1.46193">
        <ele>6.39</ele>
        <time>2014-06-28T13:52:06Z</time>
      </trkpt>
      <trkpt lat="43.57989" lon="-1.46188">
        <ele>6.39</ele>
        <time>2014-06-28T13:52:16Z</time>
      </trkpt>
      <trkpt lat="43.5795" lon="-1.46181">
        <ele>5.91</ele>
        <time>2014-06-28T13:52:26Z</time>
      </trkpt>
      <trkpt lat="43.5791" lon="-1.46155">
        <ele>5.91</ele>
        <time>2014-06-28T13:52:36Z</time>
      </trkpt>
      <trkpt lat="43.57905" lon="-1.46152">
        <ele>5.91</ele>
        <time>2014-06-28T13:52:37Z</time>
      </trkpt>
      <trkpt lat="43.57868" lon="-1.46122">
        <ele>6.39</ele>
        <time>2014-06-28T13:52:46Z</time>
      </trkpt>
      <trkpt lat="43.57814" lon="-1.46102">
        <ele>6.39</ele>
        <time>2014-06-28T13:52:59Z</time>
      </trkpt>
      <trkpt lat="43.57803" lon="-1.46085">
        <ele>6.39</ele>
        <time>2014-06-28T13:53:03Z</time>
      </trkpt>
      <trkpt lat="43.57786" lon="-1.46025">
        <ele>5.91</ele>
        <time>2014-06-28T13:53:14Z</time>
      </trkpt>
      <trkpt lat="43.5776" lon="-1.45966">
        <ele>6.39</ele>
        <time>2014-06-28T13:53:27Z</time>
      </trkpt>
      <trkpt lat="43.57744" lon="-1.45923">
        <ele>6.39</ele>
        <time>2014-06-28T13:53:37Z</time>
      </trkpt>
      <trkpt lat="43.57742" lon="-1.45918">
        <ele>6.87</ele>
        <time>2014-06-28T13:53:38Z</time>
      </trkpt>
      <trkpt lat="43.57738" lon="-1.45894">
        <ele>6.39</ele>
        <time>2014-06-28T13:53:42Z</time>
      </trkpt>
      <trkpt lat="43.57736" lon="-1.45881">
        <ele>6.39</ele>
        <time>2014-06-28T13:53:44Z</time>
      </trkpt>
      <trkpt lat="43.57726" lon="-1.45838">
        <ele>5.91</ele>
        <time>2014-06-28T13:53:51Z</time>
      </trkpt>
      <trkpt lat="43.57717" lon="-1.45818">
        <ele>6.39</ele>
        <time>2014-06-28T13:53:55Z</time>
      </trkpt>
      <trkpt lat="43.57713" lon="-1.45807">
        <ele>6.39</ele>
        <time>2014-06-28T13:53:57Z</time>
      </trkpt>
      <trkpt lat="43.57705" lon="-1.45789">
        <ele>5.91</ele>
        <time>2014-06-28T13:54:00Z</time>
      </trkpt>
      <trkpt lat="43.57684" lon="-1.45721">
        <ele>6.39</ele>
        <time>2014-06-28T13:54:13Z</time>
      </trkpt>
      <trkpt lat="43.57669" lon="-1.45675">
        <ele>6.87</ele>
        <time>2014-06-28T13:54:22Z</time>
      </trkpt>
      <trkpt lat="43.57652" lon="-1.45632">
        <ele>6.39</ele>
        <time>2014-06-28T13:54:30Z</time>
      </trkpt>
      <trkpt lat="43.57641" lon="-1.45607">
        <ele>5.91</ele>
        <time>2014-06-28T13:54:35Z</time>
      </trkpt>
      <trkpt lat="43.57633" lon="-1.45587">
        <ele>6.87</ele>
        <time>2014-06-28T13:54:39Z</time>
      </trkpt>
      <trkpt lat="43.57623" lon="-1.45552">
        <ele>6.87</ele>
        <time>2014-06-28T13:54:45Z</time>
      </trkpt>
      <trkpt lat="43.57617" lon="-1.45527">
        <ele>6.39</ele>
        <time>2014-06-28T13:54:49Z</time>
      </trkpt>
      <trkpt lat="43.57614" lon="-1.45497">
        <ele>6.87</ele>
        <time>2014-06-28T13:54:54Z</time>
      </trkpt>
      <trkpt lat="43.57613" lon="-1.45486">
        <ele>6.87</ele>
        <time>2014-06-28T13:54:56Z</time>
      </trkpt>
      <trkpt lat="43.57596" lon="-1.45453">
        <ele>6.87</ele>
        <time>2014-06-28T13:55:02Z</time>
      </trkpt>
      <trkpt lat="43.57582" lon="-1.45425">
        <ele>6.39</ele>
        <time>2014-06-28T13:55:07Z</time>
      </trkpt>
      <trkpt lat="43.57565" lon="-1.45398">
        <ele>6.39</ele>
        <time>2014-06-28T13:55:12Z</time>
      </trkpt>
      <trkpt lat="43.57557" lon="-1.45382">
        <ele>5.91</ele>
        <time>2014-06-28T13:55:15Z</time>
      </trkpt>
      <trkpt lat="43.57546" lon="-1.4535">
        <ele>6.39</ele>
        <time>2014-06-28T13:55:20Z</time>
      </trkpt>
      <trkpt lat="43.57537" lon="-1.45329">
        <ele>6.87</ele>
        <time>2014-06-28T13:55:24Z</time>
      </trkpt>
      <trkpt lat="43.57531" lon="-1.45312">
        <ele>6.39</ele>
        <time>2014-06-28T13:55:27Z</time>
      </trkpt>
      <trkpt lat="43.57529" lon="-1.45303">
        <ele>6.39</ele>
        <time>2014-06-28T13:55:28Z</time>
      </trkpt>
      <trkpt lat="43.57546" lon="-1.45286">
        <ele>6.39</ele>
        <time>2014-06-28T13:55:34Z</time>
      </trkpt>
      <trkpt lat="43.57563" lon="-1.45272">
        <ele>6.39</ele>
        <time>2014-06-28T13:55:38Z</time>
      </trkpt>
      <trkpt lat="43.57586" lon="-1.45252">
        <ele>5.91</ele>
        <time>2014-06-28T13:55:44Z</time>
      </trkpt>
      <trkpt lat="43.57594" lon="-1.45247">
        <ele>6.39</ele>
        <time>2014-06-28T13:55:46Z</time>
      </trkpt>
      <trkpt lat="43.5761" lon="-1.45235">
        <ele>6.39</ele>
        <time>2014-06-28T13:55:50Z</time>
      </trkpt>
      <trkpt lat="43.57617" lon="-1.45227">
        <ele>6.39</ele>
        <time>2014-06-28T13:55:52Z</time>
      </trkpt>
      <trkpt lat="43.57628" lon="-1.45216">
        <ele>5.91</ele>
        <time>2014-06-28T13:55:55Z</time>
      </trkpt>
      <trkpt lat="43.57646" lon="-1.452">
        <ele>6.39</ele>
        <time>2014-06-28T13:56:00Z</time>
      </trkpt>
      <trkpt lat="43.57662" lon="-1.45184">
        <ele>6.39</ele>
        <time>2014-06-28T13:56:04Z</time>
      </trkpt>
      <trkpt lat="43.57678" lon="-1.4517">
        <ele>5.91</ele>
        <time>2014-06-28T13:56:08Z</time>
      </trkpt>
      <trkpt lat="43.57695" lon="-1.45131">
        <ele>6.39</ele>
        <time>2014-06-28T13:56:16Z</time>
      </trkpt>
      <trkpt lat="43.57707" lon="-1.45099">
        <ele>6.87</ele>
        <time>2014-06-28T13:56:23Z</time>
      </trkpt>
      <trkpt lat="43.57716" lon="-1.45078">
        <ele>6.87</ele>
        <time>2014-06-28T13:56:27Z</time>
      </trkpt>
      <trkpt lat="43.57729" lon="-1.45063">
        <ele>6.39</ele>
        <time>2014-06-28T13:56:31Z</time>
      </trkpt>
      <trkpt lat="43.57768" lon="-1.45043">
        <ele>6.39</ele>
        <time>2014-06-28T13:56:42Z</time>
      </trkpt>
      <trkpt lat="43.57775" lon="-1.45037">
        <ele>6.87</ele>
        <time>2014-06-28T13:56:44Z</time>
      </trkpt>
      <trkpt lat="43.57797" lon="-1.45">
        <ele>6.87</ele>
        <time>2014-06-28T13:56:53Z</time>
      </trkpt>
      <trkpt lat="43.57807" lon="-1.44956">
        <ele>7.35</ele>
        <time>2014-06-28T13:57:02Z</time>
      </trkpt>
      <trkpt lat="43.57819" lon="-1.44883">
        <ele>7.35</ele>
        <time>2014-06-28T13:57:14Z</time>
      </trkpt>
      <trkpt lat="43.57817" lon="-1.44833">
        <ele>7.35</ele>
        <time>2014-06-28T13:57:23Z</time>
      </trkpt>
      <trkpt lat="43.57814" lon="-1.44774">
        <ele>7.35</ele>
        <time>2014-06-28T13:57:33Z</time>
      </trkpt>
      <trkpt lat="43.57807" lon="-1.44729">
        <ele>8.31</ele>
        <time>2014-06-28T13:57:42Z</time>
      </trkpt>
      <trkpt lat="43.57805" lon="-1.44677">
        <ele>7.83</ele>
        <time>2014-06-28T13:57:51Z</time>
      </trkpt>
      <trkpt lat="43.5781" lon="-1.44646">
        <ele>8.31</ele>
        <time>2014-06-28T13:57:57Z</time>
      </trkpt>
      <trkpt lat="43.5782" lon="-1.44593">
        <ele>8.31</ele>
        <time>2014-06-28T13:58:07Z</time>
      </trkpt>
      <trkpt lat="43.57832" lon="-1.44541">
        <ele>8.31</ele>
        <time>2014-06-28T13:58:17Z</time>
      </trkpt>
      <trkpt lat="43.5785" lon="-1.44505">
        <ele>8.31</ele>
        <time>2014-06-28T13:58:25Z</time>
      </trkpt>
      <trkpt lat="43.5786" lon="-1.44472">
        <ele>8.31</ele>
        <time>2014-06-28T13:58:31Z</time>
      </trkpt>
      <trkpt lat="43.5787" lon="-1.44412">
        <ele>7.83</ele>
        <time>2014-06-28T13:58:43Z</time>
      </trkpt>
      <trkpt lat="43.57872" lon="-1.44407">
        <ele>8.31</ele>
        <time>2014-06-28T13:58:44Z</time>
      </trkpt>
      <trkpt lat="43.57879" lon="-1.44385">
        <ele>7.83</ele>
        <time>2014-06-28T13:58:48Z</time>
      </trkpt>
      <trkpt lat="43.57886" lon="-1.4432">
        <ele>8.31</ele>
        <time>2014-06-28T13:58:58Z</time>
      </trkpt>
      <trkpt lat="43.57886" lon="-1.44285">
        <ele>8.79</ele>
        <time>2014-06-28T13:59:06Z</time>
      </trkpt>
      <trkpt lat="43.57879" lon="-1.44266">
        <ele>8.79</ele>
        <time>2014-06-28T13:59:10Z</time>
      </trkpt>
      <trkpt lat="43.57875" lon="-1.44242">
        <ele>9.27</ele>
        <time>2014-06-28T13:59:14Z</time>
      </trkpt>
      <trkpt lat="43.57878" lon="-1.44196">
        <ele>10.71</ele>
        <time>2014-06-28T13:59:24Z</time>
      </trkpt>
      <trkpt lat="43.57893" lon="-1.44158">
        <ele>10.23</ele>
        <time>2014-06-28T13:59:32Z</time>
      </trkpt>
      <trkpt lat="43.57905" lon="-1.44137">
        <ele>10.23</ele>
        <time>2014-06-28T13:59:36Z</time>
      </trkpt>
      <trkpt lat="43.57917" lon="-1.44098">
        <ele>10.23</ele>
        <time>2014-06-28T13:59:44Z</time>
      </trkpt>
      <trkpt lat="43.57931" lon="-1.44066">
        <ele>10.71</ele>
        <time>2014-06-28T13:59:51Z</time>
      </trkpt>
      <trkpt lat="43.57932" lon="-1.44061">
        <ele>10.23</ele>
        <time>2014-06-28T13:59:52Z</time>
      </trkpt>
      <trkpt lat="43.57942" lon="-1.44029">
        <ele>10.71</ele>
        <time>2014-06-28T13:59:57Z</time>
      </trkpt>
      <trkpt lat="43.57959" lon="-1.43948">
        <ele>10.23</ele>
        <time>2014-06-28T14:00:10Z</time>
      </trkpt>
      <trkpt lat="43.57962" lon="-1.43944">
        <ele>10.23</ele>
        <time>2014-06-28T14:00:11Z</time>
      </trkpt>
      <trkpt lat="43.5797" lon="-1.4392">
        <ele>9.27</ele>
        <time>2014-06-28T14:00:15Z</time>
      </trkpt>
      <trkpt lat="43.57986" lon="-1.43886">
        <ele>10.71</ele>
        <time>2014-06-28T14:00:21Z</time>
      </trkpt>
      <trkpt lat="43.58" lon="-1.43847">
        <ele>9.75</ele>
        <time>2014-06-28T14:00:28Z</time>
      </trkpt>
      <trkpt lat="43.58014" lon="-1.43821">
        <ele>10.23</ele>
        <time>2014-06-28T14:00:33Z</time>
      </trkpt>
      <trkpt lat="43.58022" lon="-1.43805">
        <ele>10.71</ele>
        <time>2014-06-28T14:00:36Z</time>
      </trkpt>
      <trkpt lat="43.58039" lon="-1.43775">
        <ele>10.71</ele>
        <time>2014-06-28T14:00:42Z</time>
      </trkpt>
      <trkpt lat="43.58055" lon="-1.43747">
        <ele>10.23</ele>
        <time>2014-06-28T14:00:48Z</time>
      </trkpt>
      <trkpt lat="43.58061" lon="-1.43737">
        <ele>10.71</ele>
        <time>2014-06-28T14:00:50Z</time>
      </trkpt>
      <trkpt lat="43.58085" lon="-1.43697">
        <ele>11.19</ele>
        <time>2014-06-28T14:01:00Z</time>
      </trkpt>
      <trkpt lat="43.58097" lon="-1.43672">
        <ele>11.67</ele>
        <time>2014-06-28T14:01:07Z</time>
      </trkpt>
      <trkpt lat="43.58106" lon="-1.43654">
        <ele>12.15</ele>
        <time>2014-06-28T14:01:12Z</time>
      </trkpt>
      <trkpt lat="43.58126" lon="-1.43622">
        <ele>13.6</ele>
        <time>2014-06-28T14:01:21Z</time>
      </trkpt>
      <trkpt lat="43.58134" lon="-1.43618">
        <ele>13.6</ele>
        <time>2014-06-28T14:01:33Z</time>
      </trkpt>
      <trkpt lat="43.58134" lon="-1.43618">
        <ele>13.6</ele>
        <time>2014-06-28T14:01:48Z</time>
      </trkpt>
      <trkpt lat="43.58139" lon="-1.43618">
        <ele>12.63</ele>
        <time>2014-06-28T14:02:05Z</time>
      </trkpt>
      <trkpt lat="43.58149" lon="-1.43614">
        <ele>12.63</ele>
        <time>2014-06-28T14:02:39Z</time>
      </trkpt>
      <trkpt lat="43.5815" lon="-1.43613">
        <ele>12.63</ele>
        <time>2014-06-28T14:03:12Z</time>
      </trkpt>
      <trkpt lat="43.5815" lon="-1.43611">
        <ele>12.63</ele>
        <time>2014-06-28T14:03:45Z</time>
      </trkpt>
      <trkpt lat="43.5815" lon="-1.43611">
        <ele>12.15</ele>
        <time>2014-06-28T14:04:17Z</time>
      </trkpt>
      <trkpt lat="43.58151" lon="-1.43612">
        <ele>12.15</ele>
        <time>2014-06-28T14:04:39Z</time>
      </trkpt>
      <trkpt lat="43.58151" lon="-1.43612">
        <ele>12.63</ele>
        <time>2014-06-28T14:05:04Z</time>
      </trkpt>
      <trkpt lat="43.58152" lon="-1.4361">
        <ele>12.15</ele>
        <time>2014-06-28T14:05:34Z</time>
      </trkpt>
      <trkpt lat="43.58152" lon="-1.4361">
        <ele>12.15</ele>
        <time>2014-06-28T14:06:01Z</time>
      </trkpt>
      <trkpt lat="43.58152" lon="-1.43609">
        <ele>12.15</ele>
        <time>2014-06-28T14:06:33Z</time>
      </trkpt>
      <trkpt lat="43.58151" lon="-1.4361">
        <ele>13.12</ele>
        <time>2014-06-28T14:07:00Z</time>
      </trkpt>
      <trkpt lat="43.58151" lon="-1.4361">
        <ele>13.12</ele>
        <time>2014-06-28T14:07:21Z</time>
      </trkpt>
      <trkpt lat="43.58151" lon="-1.4361">
        <ele>12.63</ele>
        <time>2014-06-28T14:07:49Z</time>
      </trkpt>
      <trkpt lat="43.5815" lon="-1.4361">
        <ele>13.12</ele>
        <time>2014-06-28T14:08:15Z</time>
      </trkpt>
      <trkpt lat="43.58149" lon="-1.43609">
        <ele>12.15</ele>
        <time>2014-06-28T14:08:31Z</time>
      </trkpt>
      <trkpt lat="43.5815" lon="-1.43609">
        <ele>13.6</ele>
        <time>2014-06-28T14:08:45Z</time>
      </trkpt>
      <trkpt lat="43.58149" lon="-1.43596">
        <ele>13.6</ele>
        <time>2014-06-28T14:08:53Z</time>
      </trkpt>
      <trkpt lat="43.58159" lon="-1.43596">
        <ele>13.6</ele>
        <time>2014-06-28T14:09:00Z</time>
      </trkpt>
      <trkpt lat="43.58163" lon="-1.43595">
        <ele>14.56</ele>
        <time>2014-06-28T14:09:03Z</time>
      </trkpt>
      <trkpt lat="43.58166" lon="-1.4359">
        <ele>15.52</ele>
        <time>2014-06-28T14:09:05Z</time>
      </trkpt>
      <trkpt lat="43.58171" lon="-1.43585">
        <ele>17.92</ele>
        <time>2014-06-28T14:09:12Z</time>
      </trkpt>
      <trkpt lat="43.58175" lon="-1.4357">
        <ele>18.4</ele>
        <time>2014-06-28T14:09:16Z</time>
      </trkpt>
      <trkpt lat="43.58178" lon="-1.43565">
        <ele>17.92</ele>
        <time>2014-06-28T14:09:17Z</time>
      </trkpt>
      <trkpt lat="43.58188" lon="-1.43551">
        <ele>18.88</ele>
        <time>2014-06-28T14:09:23Z</time>
      </trkpt>
      <trkpt lat="43.582" lon="-1.43551">
        <ele>19.84</ele>
        <time>2014-06-28T14:09:28Z</time>
      </trkpt>
      <trkpt lat="43.58204" lon="-1.43556">
        <ele>19.36</ele>
        <time>2014-06-28T14:09:34Z</time>
      </trkpt>
      <trkpt lat="43.58203" lon="-1.43543">
        <ele>20.32</ele>
        <time>2014-06-28T14:09:40Z</time>
      </trkpt>
      <trkpt lat="43.58206" lon="-1.43538">
        <ele>19.84</ele>
        <time>2014-06-28T14:09:42Z</time>
      </trkpt>
      <trkpt lat="43.58211" lon="-1.43534">
        <ele>17.92</ele>
        <time>2014-06-28T14:09:44Z</time>
      </trkpt>
      <trkpt lat="43.58216" lon="-1.43528">
        <ele>16.48</ele>
        <time>2014-06-28T14:09:47Z</time>
      </trkpt>
      <trkpt lat="43.58274" lon="-1.43505">
        <ele>18.88</ele>
        <time>2014-06-28T14:09:57Z</time>
      </trkpt>
      <trkpt lat="43.5828" lon="-1.43501">
        <ele>20.32</ele>
        <time>2014-06-28T14:10:00Z</time>
      </trkpt>
      <trkpt lat="43.58283" lon="-1.43502">
        <ele>21.77</ele>
        <time>2014-06-28T14:10:02Z</time>
      </trkpt>
      <trkpt lat="43.58284" lon="-1.43504">
        <ele>21.77</ele>
        <time>2014-06-28T14:10:04Z</time>
      </trkpt>
      <trkpt lat="43.58299" lon="-1.43509">
        <ele>19.36</ele>
        <time>2014-06-28T14:10:09Z</time>
      </trkpt>
      <trkpt lat="43.58305" lon="-1.43516">
        <ele>21.29</ele>
        <time>2014-06-28T14:10:17Z</time>
      </trkpt>
      <trkpt lat="43.58303" lon="-1.43517">
        <ele>21.29</ele>
        <time>2014-06-28T14:10:26Z</time>
      </trkpt>
      <trkpt lat="43.58311" lon="-1.43529">
        <ele>18.88</ele>
        <time>2014-06-28T14:10:31Z</time>
      </trkpt>
      <trkpt lat="43.58324" lon="-1.43556">
        <ele>20.32</ele>
        <time>2014-06-28T14:10:40Z</time>
      </trkpt>
      <trkpt lat="43.58329" lon="-1.43576">
        <ele>16.96</ele>
        <time>2014-06-28T14:10:45Z</time>
      </trkpt>
      <trkpt lat="43.58325" lon="-1.43602">
        <ele>13.12</ele>
        <time>2014-06-28T14:10:49Z</time>
      </trkpt>
      <trkpt lat="43.5832" lon="-1.4364">
        <ele>11.67</ele>
        <time>2014-06-28T14:10:54Z</time>
      </trkpt>
      <trkpt lat="43.58325" lon="-1.43669">
        <ele>13.12</ele>
        <time>2014-06-28T14:10:59Z</time>
      </trkpt>
      <trkpt lat="43.58319" lon="-1.43698">
        <ele>14.08</ele>
        <time>2014-06-28T14:11:07Z</time>
      </trkpt>
      <trkpt lat="43.58309" lon="-1.43721">
        <ele>10.71</ele>
        <time>2014-06-28T14:11:11Z</time>
      </trkpt>
      <trkpt lat="43.58303" lon="-1.43734">
        <ele>11.19</ele>
        <time>2014-06-28T14:11:13Z</time>
      </trkpt>
      <trkpt lat="43.58305" lon="-1.43769">
        <ele>13.12</ele>
        <time>2014-06-28T14:11:20Z</time>
      </trkpt>
      <trkpt lat="43.58307" lon="-1.43773">
        <ele>13.6</ele>
        <time>2014-06-28T14:11:21Z</time>
      </trkpt>
      <trkpt lat="43.58308" lon="-1.43779">
        <ele>14.08</ele>
        <time>2014-06-28T14:11:23Z</time>
      </trkpt>
      <trkpt lat="43.58301" lon="-1.43806">
        <ele>11.19</ele>
        <time>2014-06-28T14:11:32Z</time>
      </trkpt>
      <trkpt lat="43.58298" lon="-1.43817">
        <ele>10.23</ele>
        <time>2014-06-28T14:11:34Z</time>
      </trkpt>
      <trkpt lat="43.58292" lon="-1.43819">
        <ele>10.71</ele>
        <time>2014-06-28T14:11:36Z</time>
      </trkpt>
      <trkpt lat="43.58288" lon="-1.43819">
        <ele>11.67</ele>
        <time>2014-06-28T14:11:38Z</time>
      </trkpt>
      <trkpt lat="43.58277" lon="-1.43826">
        <ele>13.12</ele>
        <time>2014-06-28T14:11:44Z</time>
      </trkpt>
      <trkpt lat="43.58276" lon="-1.43847">
        <ele>14.08</ele>
        <time>2014-06-28T14:11:53Z</time>
      </trkpt>
      <trkpt lat="43.58269" lon="-1.43857">
        <ele>15.04</ele>
        <time>2014-06-28T14:11:58Z</time>
      </trkpt>
      <trkpt lat="43.58261" lon="-1.43876">
        <ele>12.15</ele>
        <time>2014-06-28T14:12:02Z</time>
      </trkpt>
      <trkpt lat="43.58252" lon="-1.43885">
        <ele>11.67</ele>
        <time>2014-06-28T14:12:05Z</time>
      </trkpt>
      <trkpt lat="43.5824" lon="-1.43893">
        <ele>10.71</ele>
        <time>2014-06-28T14:12:08Z</time>
      </trkpt>
      <trkpt lat="43.58232" lon="-1.43907">
        <ele>11.19</ele>
        <time>2014-06-28T14:12:12Z</time>
      </trkpt>
      <trkpt lat="43.58231" lon="-1.43917">
        <ele>11.67</ele>
        <time>2014-06-28T14:12:16Z</time>
      </trkpt>
      <trkpt lat="43.5823" lon="-1.43921">
        <ele>10.71</ele>
        <time>2014-06-28T14:12:18Z</time>
      </trkpt>
      <trkpt lat="43.58226" lon="-1.43935">
        <ele>11.19</ele>
        <time>2014-06-28T14:12:25Z</time>
      </trkpt>
      <trkpt lat="43.58224" lon="-1.43945">
        <ele>11.19</ele>
        <time>2014-06-28T14:12:29Z</time>
      </trkpt>
      <trkpt lat="43.5822" lon="-1.43947">
        <ele>12.63</ele>
        <time>2014-06-28T14:12:32Z</time>
      </trkpt>
      <trkpt lat="43.58215" lon="-1.43947">
        <ele>13.12</ele>
        <time>2014-06-28T14:12:44Z</time>
      </trkpt>
      <trkpt lat="43.58213" lon="-1.43946">
        <ele>14.56</ele>
        <time>2014-06-28T14:12:59Z</time>
      </trkpt>
      <trkpt lat="43.58211" lon="-1.43946">
        <ele>14.56</ele>
        <time>2014-06-28T14:13:25Z</time>
      </trkpt>
      <trkpt lat="43.5821" lon="-1.43946">
        <ele>14.08</ele>
        <time>2014-06-28T14:13:53Z</time>
      </trkpt>
      <trkpt lat="43.58208" lon="-1.43946">
        <ele>14.56</ele>
        <time>2014-06-28T14:14:01Z</time>
      </trkpt>
      <trkpt lat="43.58204" lon="-1.43966">
        <ele>16</ele>
        <time>2014-06-28T14:14:10Z</time>
      </trkpt>
      <trkpt lat="43.58207" lon="-1.43971">
        <ele>16.96</ele>
        <time>2014-06-28T14:14:13Z</time>
      </trkpt>
      <trkpt lat="43.58208" lon="-1.43983">
        <ele>18.4</ele>
        <time>2014-06-28T14:14:20Z</time>
      </trkpt>
      <trkpt lat="43.58203" lon="-1.43995">
        <ele>15.04</ele>
        <time>2014-06-28T14:14:26Z</time>
      </trkpt>
      <trkpt lat="43.58202" lon="-1.43998">
        <ele>14.56</ele>
        <time>2014-06-28T14:14:27Z</time>
      </trkpt>
      <trkpt lat="43.58201" lon="-1.44013">
        <ele>12.15</ele>
        <time>2014-06-28T14:14:31Z</time>
      </trkpt>
      <trkpt lat="43.58183" lon="-1.44041">
        <ele>9.75</ele>
        <time>2014-06-28T14:14:39Z</time>
      </trkpt>
      <trkpt lat="43.5818" lon="-1.44049">
        <ele>8.79</ele>
        <time>2014-06-28T14:14:41Z</time>
      </trkpt>
      <trkpt lat="43.58178" lon="-1.44055">
        <ele>9.27</ele>
        <time>2014-06-28T14:14:48Z</time>
      </trkpt>
      <trkpt lat="43.58179" lon="-1.44073">
        <ele>10.23</ele>
        <time>2014-06-28T14:15:01Z</time>
      </trkpt>
      <trkpt lat="43.5817" lon="-1.441">
        <ele>10.71</ele>
        <time>2014-06-28T14:15:10Z</time>
      </trkpt>
      <trkpt lat="43.58167" lon="-1.44112">
        <ele>11.19</ele>
        <time>2014-06-28T14:15:14Z</time>
      </trkpt>
      <trkpt lat="43.58164" lon="-1.4413">
        <ele>10.23</ele>
        <time>2014-06-28T14:15:19Z</time>
      </trkpt>
      <trkpt lat="43.58157" lon="-1.4414">
        <ele>10.71</ele>
        <time>2014-06-28T14:15:28Z</time>
      </trkpt>
      <trkpt lat="43.58158" lon="-1.44141">
        <ele>10.71</ele>
        <time>2014-06-28T14:15:43Z</time>
      </trkpt>
      <trkpt lat="43.58145" lon="-1.4414">
        <ele>8.31</ele>
        <time>2014-06-28T14:15:53Z</time>
      </trkpt>
      <trkpt lat="43.58146" lon="-1.44138">
        <ele>9.27</ele>
        <time>2014-06-28T14:16:07Z</time>
      </trkpt>
      <trkpt lat="43.58148" lon="-1.4414">
        <ele>8.79</ele>
        <time>2014-06-28T14:16:10Z</time>
      </trkpt>
      <trkpt lat="43.58151" lon="-1.44154">
        <ele>8.79</ele>
        <time>2014-06-28T14:16:16Z</time>
      </trkpt>
      <trkpt lat="43.58155" lon="-1.44159">
        <ele>10.23</ele>
        <time>2014-06-28T14:16:23Z</time>
      </trkpt>
      <trkpt lat="43.58157" lon="-1.44169">
        <ele>10.23</ele>
        <time>2014-06-28T14:16:28Z</time>
      </trkpt>
      <trkpt lat="43.58157" lon="-1.44177">
        <ele>8.79</ele>
        <time>2014-06-28T14:16:32Z</time>
      </trkpt>
      <trkpt lat="43.58163" lon="-1.44185">
        <ele>6.87</ele>
        <time>2014-06-28T14:16:36Z</time>
      </trkpt>
      <trkpt lat="43.58165" lon="-1.44206">
        <ele>6.87</ele>
        <time>2014-06-28T14:16:42Z</time>
      </trkpt>
      <trkpt lat="43.58161" lon="-1.4425">
        <ele>6.39</ele>
        <time>2014-06-28T14:16:51Z</time>
      </trkpt>
      <trkpt lat="43.58159" lon="-1.44282">
        <ele>6.39</ele>
        <time>2014-06-28T14:16:57Z</time>
      </trkpt>
      <trkpt lat="43.58157" lon="-1.44326">
        <ele>5.42</ele>
        <time>2014-06-28T14:17:05Z</time>
      </trkpt>
      <trkpt lat="43.58157" lon="-1.44342">
        <ele>5.42</ele>
        <time>2014-06-28T14:17:07Z</time>
      </trkpt>
      <trkpt lat="43.5816" lon="-1.44413">
        <ele>5.91</ele>
        <time>2014-06-28T14:17:18Z</time>
      </trkpt>
      <trkpt lat="43.58162" lon="-1.4443">
        <ele>6.39</ele>
        <time>2014-06-28T14:17:21Z</time>
      </trkpt>
      <trkpt lat="43.58169" lon="-1.44472">
        <ele>5.91</ele>
        <time>2014-06-28T14:17:28Z</time>
      </trkpt>
      <trkpt lat="43.5818" lon="-1.44522">
        <ele>5.91</ele>
        <time>2014-06-28T14:17:37Z</time>
      </trkpt>
      <trkpt lat="43.58193" lon="-1.44567">
        <ele>6.87</ele>
        <time>2014-06-28T14:17:45Z</time>
      </trkpt>
      <trkpt lat="43.58202" lon="-1.44594">
        <ele>7.35</ele>
        <time>2014-06-28T14:17:50Z</time>
      </trkpt>
      <trkpt lat="43.58206" lon="-1.44611">
        <ele>6.87</ele>
        <time>2014-06-28T14:17:53Z</time>
      </trkpt>
      <trkpt lat="43.58224" lon="-1.44664">
        <ele>6.87</ele>
        <time>2014-06-28T14:18:03Z</time>
      </trkpt>
      <trkpt lat="43.58232" lon="-1.44685">
        <ele>7.35</ele>
        <time>2014-06-28T14:18:07Z</time>
      </trkpt>
      <trkpt lat="43.58241" lon="-1.44713">
        <ele>6.39</ele>
        <time>2014-06-28T14:18:12Z</time>
      </trkpt>
      <trkpt lat="43.58251" lon="-1.44736">
        <ele>6.39</ele>
        <time>2014-06-28T14:18:16Z</time>
      </trkpt>
      <trkpt lat="43.58261" lon="-1.44763">
        <ele>7.35</ele>
        <time>2014-06-28T14:18:21Z</time>
      </trkpt>
      <trkpt lat="43.5827" lon="-1.44785">
        <ele>7.35</ele>
        <time>2014-06-28T14:18:25Z</time>
      </trkpt>
      <trkpt lat="43.58284" lon="-1.44836">
        <ele>6.87</ele>
        <time>2014-06-28T14:18:34Z</time>
      </trkpt>
      <trkpt lat="43.58296" lon="-1.4488">
        <ele>6.87</ele>
        <time>2014-06-28T14:18:42Z</time>
      </trkpt>
      <trkpt lat="43.58307" lon="-1.44929">
        <ele>6.87</ele>
        <time>2014-06-28T14:18:52Z</time>
      </trkpt>
      <trkpt lat="43.58317" lon="-1.44965">
        <ele>7.35</ele>
        <time>2014-06-28T14:19:02Z</time>
      </trkpt>
      <trkpt lat="43.58317" lon="-1.44967">
        <ele>6.87</ele>
        <time>2014-06-28T14:19:20Z</time>
      </trkpt>
      <trkpt lat="43.58318" lon="-1.44968">
        <ele>6.39</ele>
        <time>2014-06-28T14:19:40Z</time>
      </trkpt>
      <trkpt lat="43.58319" lon="-1.44978">
        <ele>6.87</ele>
        <time>2014-06-28T14:19:50Z</time>
      </trkpt>
      <trkpt lat="43.58322" lon="-1.44981">
        <ele>6.39</ele>
        <time>2014-06-28T14:19:54Z</time>
      </trkpt>
      <trkpt lat="43.5833" lon="-1.45">
        <ele>5.42</ele>
        <time>2014-06-28T14:20:07Z</time>
      </trkpt>
      <trkpt lat="43.58332" lon="-1.45007">
        <ele>5.91</ele>
        <time>2014-06-28T14:20:10Z</time>
      </trkpt>
      <trkpt lat="43.58334" lon="-1.45011">
        <ele>5.42</ele>
        <time>2014-06-28T14:20:12Z</time>
      </trkpt>
      <trkpt lat="43.58336" lon="-1.4502">
        <ele>5.42</ele>
        <time>2014-06-28T14:20:15Z</time>
      </trkpt>
      <trkpt lat="43.58343" lon="-1.45039">
        <ele>5.42</ele>
        <time>2014-06-28T14:20:20Z</time>
      </trkpt>
      <trkpt lat="43.58358" lon="-1.45083">
        <ele>5.42</ele>
        <time>2014-06-28T14:20:30Z</time>
      </trkpt>
      <trkpt lat="43.58359" lon="-1.451">
        <ele>5.91</ele>
        <time>2014-06-28T14:20:36Z</time>
      </trkpt>
      <trkpt lat="43.58375" lon="-1.45139">
        <ele>5.91</ele>
        <time>2014-06-28T14:20:45Z</time>
      </trkpt>
      <trkpt lat="43.58384" lon="-1.4516">
        <ele>5.42</ele>
        <time>2014-06-28T14:20:50Z</time>
      </trkpt>
      <trkpt lat="43.58401" lon="-1.45209">
        <ele>5.42</ele>
        <time>2014-06-28T14:21:02Z</time>
      </trkpt>
      <trkpt lat="43.58402" lon="-1.45213">
        <ele>4.94</ele>
        <time>2014-06-28T14:21:03Z</time>
      </trkpt>
      <trkpt lat="43.5841" lon="-1.45233">
        <ele>5.42</ele>
        <time>2014-06-28T14:21:08Z</time>
      </trkpt>
      <trkpt lat="43.58413" lon="-1.45248">
        <ele>4.94</ele>
        <time>2014-06-28T14:21:12Z</time>
      </trkpt>
      <trkpt lat="43.58422" lon="-1.45285">
        <ele>5.91</ele>
        <time>2014-06-28T14:21:22Z</time>
      </trkpt>
      <trkpt lat="43.58433" lon="-1.45332">
        <ele>5.42</ele>
        <time>2014-06-28T14:21:34Z</time>
      </trkpt>
      <trkpt lat="43.5844" lon="-1.45359">
        <ele>5.42</ele>
        <time>2014-06-28T14:21:40Z</time>
      </trkpt>
      <trkpt lat="43.58457" lon="-1.45402">
        <ele>5.42</ele>
        <time>2014-06-28T14:21:51Z</time>
      </trkpt>
      <trkpt lat="43.58467" lon="-1.45439">
        <ele>5.91</ele>
        <time>2014-06-28T14:22:00Z</time>
      </trkpt>
      <trkpt lat="43.58483" lon="-1.45487">
        <ele>5.91</ele>
        <time>2014-06-28T14:22:11Z</time>
      </trkpt>
      <trkpt lat="43.58497" lon="-1.45523">
        <ele>5.91</ele>
        <time>2014-06-28T14:22:19Z</time>
      </trkpt>
      <trkpt lat="43.58509" lon="-1.45551">
        <ele>4.94</ele>
        <time>2014-06-28T14:22:25Z</time>
      </trkpt>
      <trkpt lat="43.58513" lon="-1.45558">
        <ele>4.94</ele>
        <time>2014-06-28T14:22:27Z</time>
      </trkpt>
      <trkpt lat="43.58516" lon="-1.45575">
        <ele>4.46</ele>
        <time>2014-06-28T14:22:31Z</time>
      </trkpt>
      <trkpt lat="43.58518" lon="-1.45602">
        <ele>3.98</ele>
        <time>2014-06-28T14:22:40Z</time>
      </trkpt>
      <trkpt lat="43.58522" lon="-1.45602">
        <ele>4.46</ele>
        <time>2014-06-28T14:22:44Z</time>
      </trkpt>
      <trkpt lat="43.58535" lon="-1.45577">
        <ele>4.46</ele>
        <time>2014-06-28T14:22:56Z</time>
      </trkpt>
      <trkpt lat="43.58544" lon="-1.45565">
        <ele>3.98</ele>
        <time>2014-06-28T14:23:03Z</time>
      </trkpt>
      <trkpt lat="43.58546" lon="-1.45562">
        <ele>5.42</ele>
        <time>2014-06-28T14:23:05Z</time>
      </trkpt>
      <trkpt lat="43.58552" lon="-1.45582">
        <ele>3.02</ele>
        <time>2014-06-28T14:23:11Z</time>
      </trkpt>
      <trkpt lat="43.58581" lon="-1.45624">
        <ele>3.02</ele>
        <time>2014-06-28T14:23:25Z</time>
      </trkpt>
      <trkpt lat="43.58612" lon="-1.45661">
        <ele>4.46</ele>
        <time>2014-06-28T14:23:37Z</time>
      </trkpt>
      <trkpt lat="43.58635" lon="-1.45688">
        <ele>4.94</ele>
        <time>2014-06-28T14:23:45Z</time>
      </trkpt>
      <trkpt lat="43.58677" lon="-1.45733">
        <ele>4.46</ele>
        <time>2014-06-28T14:23:59Z</time>
      </trkpt>
      <trkpt lat="43.58713" lon="-1.45775">
        <ele>4.94</ele>
        <time>2014-06-28T14:24:11Z</time>
      </trkpt>
      <trkpt lat="43.58719" lon="-1.45782">
        <ele>3.98</ele>
        <time>2014-06-28T14:24:13Z</time>
      </trkpt>
      <trkpt lat="43.58738" lon="-1.45804">
        <ele>4.46</ele>
        <time>2014-06-28T14:24:19Z</time>
      </trkpt>
      <trkpt lat="43.58744" lon="-1.45811">
        <ele>3.98</ele>
        <time>2014-06-28T14:24:21Z</time>
      </trkpt>
      <trkpt lat="43.5876" lon="-1.45827">
        <ele>3.98</ele>
        <time>2014-06-28T14:24:26Z</time>
      </trkpt>
      <trkpt lat="43.58796" lon="-1.45857">
        <ele>4.94</ele>
        <time>2014-06-28T14:24:38Z</time>
      </trkpt>
      <trkpt lat="43.58813" lon="-1.45872">
        <ele>4.94</ele>
        <time>2014-06-28T14:24:44Z</time>
      </trkpt>
      <trkpt lat="43.58841" lon="-1.45896">
        <ele>4.46</ele>
        <time>2014-06-28T14:24:53Z</time>
      </trkpt>
      <trkpt lat="43.58873" lon="-1.45922">
        <ele>4.46</ele>
        <time>2014-06-28T14:25:02Z</time>
      </trkpt>
      <trkpt lat="43.58909" lon="-1.45949">
        <ele>4.46</ele>
        <time>2014-06-28T14:25:14Z</time>
      </trkpt>
      <trkpt lat="43.58944" lon="-1.45979">
        <ele>4.46</ele>
        <time>2014-06-28T14:25:26Z</time>
      </trkpt>
      <trkpt lat="43.58971" lon="-1.45989">
        <ele>5.42</ele>
        <time>2014-06-28T14:25:32Z</time>
      </trkpt>
      <trkpt lat="43.58974" lon="-1.45989">
        <ele>4.46</ele>
        <time>2014-06-28T14:25:33Z</time>
      </trkpt>
      <trkpt lat="43.58983" lon="-1.45994">
        <ele>3.5</ele>
        <time>2014-06-28T14:25:35Z</time>
      </trkpt>
      <trkpt lat="43.59035" lon="-1.46015">
        <ele>3.98</ele>
        <time>2014-06-28T14:25:46Z</time>
      </trkpt>
      <trkpt lat="43.59059" lon="-1.46024">
        <ele>3.98</ele>
        <time>2014-06-28T14:25:51Z</time>
      </trkpt>
      <trkpt lat="43.59108" lon="-1.4604">
        <ele>3.5</ele>
        <time>2014-06-28T14:26:04Z</time>
      </trkpt>
      <trkpt lat="43.59143" lon="-1.46049">
        <ele>3.98</ele>
        <time>2014-06-28T14:26:12Z</time>
      </trkpt>
      <trkpt lat="43.59182" lon="-1.46057">
        <ele>4.46</ele>
        <time>2014-06-28T14:26:21Z</time>
      </trkpt>
      <trkpt lat="43.59247" lon="-1.46062">
        <ele>4.46</ele>
        <time>2014-06-28T14:26:36Z</time>
      </trkpt>
      <trkpt lat="43.59293" lon="-1.46067">
        <ele>4.46</ele>
        <time>2014-06-28T14:26:47Z</time>
      </trkpt>
      <trkpt lat="43.59294" lon="-1.46055">
        <ele>5.42</ele>
        <time>2014-06-28T14:26:55Z</time>
      </trkpt>
      <trkpt lat="43.59295" lon="-1.46054">
        <ele>5.91</ele>
        <time>2014-06-28T14:27:06Z</time>
      </trkpt>
      <trkpt lat="43.59295" lon="-1.46055">
        <ele>3.02</ele>
        <time>2014-06-28T14:27:30Z</time>
      </trkpt>
      <trkpt lat="43.59295" lon="-1.46055">
        <ele>6.39</ele>
        <time>2014-06-28T14:27:31Z</time>
      </trkpt>
      <trkpt lat="43.59295" lon="-1.46055">
        <ele>3.5</ele>
        <time>2014-06-28T14:27:32Z</time>
      </trkpt>
      <trkpt lat="43.59295" lon="-1.46055">
        <ele>5.42</ele>
        <time>2014-06-28T14:27:34Z</time>
      </trkpt>
      <trkpt lat="43.5928" lon="-1.46056">
        <ele>5.42</ele>
        <time>2014-06-28T14:28:30Z</time>
      </trkpt>
      <trkpt lat="43.59285" lon="-1.46057">
        <ele>5.42</ele>
        <time>2014-06-28T14:28:31Z</time>
      </trkpt>
      <trkpt lat="43.59288" lon="-1.46061">
        <ele>10.71</ele>
        <time>2014-06-28T14:28:39Z</time>
      </trkpt>
      <trkpt lat="43.59288" lon="-1.4606">
        <ele>5.91</ele>
        <time>2014-06-28T14:28:40Z</time>
      </trkpt>
      <trkpt lat="43.59287" lon="-1.46058">
        <ele>9.27</ele>
        <time>2014-06-28T14:28:45Z</time>
      </trkpt>
      <trkpt lat="43.59287" lon="-1.46058">
        <ele>5.91</ele>
        <time>2014-06-28T14:28:46Z</time>
      </trkpt>
      <trkpt lat="43.59287" lon="-1.46055">
        <ele>1.58</ele>
        <time>2014-06-28T14:28:50Z</time>
      </trkpt>
      <trkpt lat="43.59287" lon="-1.46054">
        <ele>3.5</ele>
        <time>2014-06-28T14:28:51Z</time>
      </trkpt>
      <trkpt lat="43.59288" lon="-1.46052">
        <ele>5.91</ele>
        <time>2014-06-28T14:28:54Z</time>
      </trkpt>
      <trkpt lat="43.59294" lon="-1.46048">
        <ele>6.87</ele>
        <time>2014-06-28T14:29:19Z</time>
      </trkpt>
      <trkpt lat="43.59296" lon="-1.46057">
        <ele>6.87</ele>
        <time>2014-06-28T14:29:40Z</time>
      </trkpt>
      <trkpt lat="43.59293" lon="-1.4606">
        <ele>5.91</ele>
        <time>2014-06-28T14:30:00Z</time>
      </trkpt>
      <trkpt lat="43.59297" lon="-1.46057">
        <ele>6.87</ele>
        <time>2014-06-28T14:30:14Z</time>
      </trkpt>
      <trkpt lat="43.59297" lon="-1.46057">
        <ele>6.87</ele>
        <time>2014-06-28T14:30:17Z</time>
      </trkpt>
      <trkpt lat="43.593" lon="-1.46066">
        <ele>5.91</ele>
        <time>2014-06-28T14:30:22Z</time>
      </trkpt>
      <trkpt lat="43.59354" lon="-1.46067">
        <ele>5.91</ele>
        <time>2014-06-28T14:30:37Z</time>
      </trkpt>
      <trkpt lat="43.59408" lon="-1.46065">
        <ele>5.42</ele>
        <time>2014-06-28T14:30:51Z</time>
      </trkpt>
      <trkpt lat="43.59449" lon="-1.46061">
        <ele>5.91</ele>
        <time>2014-06-28T14:31:02Z</time>
      </trkpt>
      <trkpt lat="43.59496" lon="-1.46056">
        <ele>5.91</ele>
        <time>2014-06-28T14:31:14Z</time>
      </trkpt>
      <trkpt lat="43.59554" lon="-1.46047">
        <ele>4.46</ele>
        <time>2014-06-28T14:31:28Z</time>
      </trkpt>
      <trkpt lat="43.59572" lon="-1.46033">
        <ele>4.94</ele>
        <time>2014-06-28T14:31:33Z</time>
      </trkpt>
      <trkpt lat="43.59583" lon="-1.46019">
        <ele>4.94</ele>
        <time>2014-06-28T14:31:37Z</time>
      </trkpt>
      <trkpt lat="43.59594" lon="-1.46025">
        <ele>5.42</ele>
        <time>2014-06-28T14:31:41Z</time>
      </trkpt>
      <trkpt lat="43.59616" lon="-1.46027">
        <ele>3.98</ele>
        <time>2014-06-28T14:31:49Z</time>
      </trkpt>
      <trkpt lat="43.59642" lon="-1.46024">
        <ele>4.46</ele>
        <time>2014-06-28T14:31:55Z</time>
      </trkpt>
      <trkpt lat="43.59679" lon="-1.46018">
        <ele>4.46</ele>
        <time>2014-06-28T14:32:04Z</time>
      </trkpt>
      <trkpt lat="43.59696" lon="-1.4602">
        <ele>5.42</ele>
        <time>2014-06-28T14:32:08Z</time>
      </trkpt>
      <trkpt lat="43.59747" lon="-1.46022">
        <ele>3.98</ele>
        <time>2014-06-28T14:32:21Z</time>
      </trkpt>
      <trkpt lat="43.59797" lon="-1.46022">
        <ele>4.46</ele>
        <time>2014-06-28T14:32:32Z</time>
      </trkpt>
      <trkpt lat="43.59837" lon="-1.46015">
        <ele>4.94</ele>
        <time>2014-06-28T14:32:42Z</time>
      </trkpt>
      <trkpt lat="43.59875" lon="-1.46003">
        <ele>4.46</ele>
        <time>2014-06-28T14:32:51Z</time>
      </trkpt>
      <trkpt lat="43.59941" lon="-1.45977">
        <ele>4.46</ele>
        <time>2014-06-28T14:33:06Z</time>
      </trkpt>
      <trkpt lat="43.59997" lon="-1.45942">
        <ele>4.46</ele>
        <time>2014-06-28T14:33:19Z</time>
      </trkpt>
      <trkpt lat="43.60062" lon="-1.459">
        <ele>5.42</ele>
        <time>2014-06-28T14:33:34Z</time>
      </trkpt>
      <trkpt lat="43.60078" lon="-1.45889">
        <ele>5.91</ele>
        <time>2014-06-28T14:33:38Z</time>
      </trkpt>
      <trkpt lat="43.60106" lon="-1.4587">
        <ele>5.91</ele>
        <time>2014-06-28T14:33:45Z</time>
      </trkpt>
      <trkpt lat="43.60164" lon="-1.45812">
        <ele>5.91</ele>
        <time>2014-06-28T14:34:00Z</time>
      </trkpt>
      <trkpt lat="43.60198" lon="-1.45776">
        <ele>4.94</ele>
        <time>2014-06-28T14:34:09Z</time>
      </trkpt>
      <trkpt lat="43.60232" lon="-1.45752">
        <ele>4.46</ele>
        <time>2014-06-28T14:34:19Z</time>
      </trkpt>
      <trkpt lat="43.6029" lon="-1.45716">
        <ele>4.46</ele>
        <time>2014-06-28T14:34:33Z</time>
      </trkpt>
      <trkpt lat="43.6032" lon="-1.45702">
        <ele>4.46</ele>
        <time>2014-06-28T14:34:40Z</time>
      </trkpt>
      <trkpt lat="43.60351" lon="-1.45689">
        <ele>3.98</ele>
        <time>2014-06-28T14:34:47Z</time>
      </trkpt>
      <trkpt lat="43.60367" lon="-1.45683">
        <ele>4.46</ele>
        <time>2014-06-28T14:34:51Z</time>
      </trkpt>
      <trkpt lat="43.60421" lon="-1.45668">
        <ele>4.94</ele>
        <time>2014-06-28T14:35:04Z</time>
      </trkpt>
      <trkpt lat="43.60437" lon="-1.45662">
        <ele>5.42</ele>
        <time>2014-06-28T14:35:08Z</time>
      </trkpt>
      <trkpt lat="43.60481" lon="-1.45642">
        <ele>4.94</ele>
        <time>2014-06-28T14:35:18Z</time>
      </trkpt>
      <trkpt lat="43.60506" lon="-1.45625">
        <ele>4.94</ele>
        <time>2014-06-28T14:35:24Z</time>
      </trkpt>
      <trkpt lat="43.60526" lon="-1.45606">
        <ele>4.94</ele>
        <time>2014-06-28T14:35:29Z</time>
      </trkpt>
      <trkpt lat="43.60585" lon="-1.45542">
        <ele>4.94</ele>
        <time>2014-06-28T14:35:44Z</time>
      </trkpt>
      <trkpt lat="43.60592" lon="-1.45532">
        <ele>4.46</ele>
        <time>2014-06-28T14:35:46Z</time>
      </trkpt>
      <trkpt lat="43.606" lon="-1.45524">
        <ele>4.46</ele>
        <time>2014-06-28T14:35:48Z</time>
      </trkpt>
      <trkpt lat="43.60619" lon="-1.45507">
        <ele>4.94</ele>
        <time>2014-06-28T14:35:53Z</time>
      </trkpt>
      <trkpt lat="43.60644" lon="-1.45488">
        <ele>5.42</ele>
        <time>2014-06-28T14:36:05Z</time>
      </trkpt>
      <trkpt lat="43.60643" lon="-1.4549">
        <ele>6.39</ele>
        <time>2014-06-28T14:36:14Z</time>
      </trkpt>
      <trkpt lat="43.60643" lon="-1.45492">
        <ele>5.42</ele>
        <time>2014-06-28T14:36:21Z</time>
      </trkpt>
      <trkpt lat="43.60647" lon="-1.45506">
        <ele>5.42</ele>
        <time>2014-06-28T14:36:27Z</time>
      </trkpt>
      <trkpt lat="43.60649" lon="-1.45513">
        <ele>5.91</ele>
        <time>2014-06-28T14:36:35Z</time>
      </trkpt>
      <trkpt lat="43.60649" lon="-1.45519">
        <ele>5.42</ele>
        <time>2014-06-28T14:36:44Z</time>
      </trkpt>
      <trkpt lat="43.60647" lon="-1.45517">
        <ele>5.42</ele>
        <time>2014-06-28T14:36:59Z</time>
      </trkpt>
      <trkpt lat="43.60648" lon="-1.45516">
        <ele>5.42</ele>
        <time>2014-06-28T14:37:20Z</time>
      </trkpt>
      <trkpt lat="43.60648" lon="-1.45517">
        <ele>5.91</ele>
        <time>2014-06-28T14:37:39Z</time>
      </trkpt>
      <trkpt lat="43.60648" lon="-1.45517">
        <ele>6.39</ele>
        <time>2014-06-28T14:37:48Z</time>
      </trkpt>
      <trkpt lat="43.60644" lon="-1.4552">
        <ele>6.39</ele>
        <time>2014-06-28T14:37:52Z</time>
      </trkpt>
      <trkpt lat="43.6061" lon="-1.45552">
        <ele>6.87</ele>
        <time>2014-06-28T14:38:05Z</time>
      </trkpt>
      <trkpt lat="43.60581" lon="-1.45586">
        <ele>6.39</ele>
        <time>2014-06-28T14:38:15Z</time>
      </trkpt>
      <trkpt lat="43.60553" lon="-1.45615">
        <ele>7.35</ele>
        <time>2014-06-28T14:38:24Z</time>
      </trkpt>
      <trkpt lat="43.60514" lon="-1.45649">
        <ele>6.87</ele>
        <time>2014-06-28T14:38:36Z</time>
      </trkpt>
      <trkpt lat="43.6051" lon="-1.45651">
        <ele>6.87</ele>
        <time>2014-06-28T14:38:37Z</time>
      </trkpt>
      <trkpt lat="43.60463" lon="-1.4568">
        <ele>6.87</ele>
        <time>2014-06-28T14:38:50Z</time>
      </trkpt>
      <trkpt lat="43.60423" lon="-1.45696">
        <ele>7.35</ele>
        <time>2014-06-28T14:39:02Z</time>
      </trkpt>
      <trkpt lat="43.60395" lon="-1.45705">
        <ele>6.39</ele>
        <time>2014-06-28T14:39:10Z</time>
      </trkpt>
      <trkpt lat="43.60374" lon="-1.45707">
        <ele>5.91</ele>
        <time>2014-06-28T14:39:15Z</time>
      </trkpt>
      <trkpt lat="43.60357" lon="-1.45715">
        <ele>5.91</ele>
        <time>2014-06-28T14:39:19Z</time>
      </trkpt>
      <trkpt lat="43.60346" lon="-1.4572">
        <ele>6.39</ele>
        <time>2014-06-28T14:39:22Z</time>
      </trkpt>
      <trkpt lat="43.60303" lon="-1.45744">
        <ele>6.87</ele>
        <time>2014-06-28T14:39:34Z</time>
      </trkpt>
      <trkpt lat="43.60292" lon="-1.4575">
        <ele>7.35</ele>
        <time>2014-06-28T14:39:44Z</time>
      </trkpt>
      <trkpt lat="43.60289" lon="-1.45752">
        <ele>7.35</ele>
        <time>2014-06-28T14:40:00Z</time>
      </trkpt>
      <trkpt lat="43.60282" lon="-1.45756">
        <ele>7.35</ele>
        <time>2014-06-28T14:40:13Z</time>
      </trkpt>
      <trkpt lat="43.60277" lon="-1.45759">
        <ele>7.35</ele>
        <time>2014-06-28T14:40:16Z</time>
      </trkpt>
      <trkpt lat="43.60242" lon="-1.45782">
        <ele>6.39</ele>
        <time>2014-06-28T14:40:29Z</time>
      </trkpt>
      <trkpt lat="43.6021" lon="-1.45809">
        <ele>6.87</ele>
        <time>2014-06-28T14:40:40Z</time>
      </trkpt>
      <trkpt lat="43.60182" lon="-1.45841">
        <ele>5.91</ele>
        <time>2014-06-28T14:40:49Z</time>
      </trkpt>
      <trkpt lat="43.60163" lon="-1.45858">
        <ele>5.91</ele>
        <time>2014-06-28T14:40:54Z</time>
      </trkpt>
      <trkpt lat="43.60154" lon="-1.45868">
        <ele>5.91</ele>
        <time>2014-06-28T14:40:57Z</time>
      </trkpt>
      <trkpt lat="43.60128" lon="-1.45893">
        <ele>5.91</ele>
        <time>2014-06-28T14:41:05Z</time>
      </trkpt>
      <trkpt lat="43.6012" lon="-1.459">
        <ele>6.39</ele>
        <time>2014-06-28T14:41:08Z</time>
      </trkpt>
      <trkpt lat="43.60118" lon="-1.45906">
        <ele>6.87</ele>
        <time>2014-06-28T14:41:11Z</time>
      </trkpt>
      <trkpt lat="43.60123" lon="-1.45913">
        <ele>5.91</ele>
        <time>2014-06-28T14:41:15Z</time>
      </trkpt>
      <trkpt lat="43.60125" lon="-1.45914">
        <ele>6.39</ele>
        <time>2014-06-28T14:41:16Z</time>
      </trkpt>
      <trkpt lat="43.60135" lon="-1.45922">
        <ele>6.39</ele>
        <time>2014-06-28T14:41:21Z</time>
      </trkpt>
      <trkpt lat="43.60148" lon="-1.45951">
        <ele>6.39</ele>
        <time>2014-06-28T14:41:30Z</time>
      </trkpt>
      <trkpt lat="43.60161" lon="-1.45956">
        <ele>6.87</ele>
        <time>2014-06-28T14:41:37Z</time>
      </trkpt>
      <trkpt lat="43.60166" lon="-1.45957">
        <ele>6.39</ele>
        <time>2014-06-28T14:41:39Z</time>
      </trkpt>
      <trkpt lat="43.60171" lon="-1.4596">
        <ele>6.39</ele>
        <time>2014-06-28T14:41:41Z</time>
      </trkpt>
      <trkpt lat="43.6018" lon="-1.45983">
        <ele>6.39</ele>
        <time>2014-06-28T14:41:48Z</time>
      </trkpt>
      <trkpt lat="43.60181" lon="-1.45991">
        <ele>5.91</ele>
        <time>2014-06-28T14:41:50Z</time>
      </trkpt>
      <trkpt lat="43.60204" lon="-1.46005">
        <ele>5.91</ele>
        <time>2014-06-28T14:41:56Z</time>
      </trkpt>
      <trkpt lat="43.60217" lon="-1.46024">
        <ele>6.39</ele>
        <time>2014-06-28T14:42:03Z</time>
      </trkpt>
      <trkpt lat="43.60256" lon="-1.46134">
        <ele>5.91</ele>
        <time>2014-06-28T14:42:20Z</time>
      </trkpt>
      <trkpt lat="43.60258" lon="-1.4615">
        <ele>6.87</ele>
        <time>2014-06-28T14:42:23Z</time>
      </trkpt>
      <trkpt lat="43.60268" lon="-1.46168">
        <ele>7.83</ele>
        <time>2014-06-28T14:42:27Z</time>
      </trkpt>
      <trkpt lat="43.60286" lon="-1.46225">
        <ele>10.23</ele>
        <time>2014-06-28T14:42:40Z</time>
      </trkpt>
      <trkpt lat="43.60287" lon="-1.46228">
        <ele>10.23</ele>
        <time>2014-06-28T14:42:41Z</time>
      </trkpt>
      <trkpt lat="43.60289" lon="-1.46233">
        <ele>10.71</ele>
        <time>2014-06-28T14:42:44Z</time>
      </trkpt>
      <trkpt lat="43.60306" lon="-1.46238">
        <ele>11.67</ele>
        <time>2014-06-28T14:42:51Z</time>
      </trkpt>
      <trkpt lat="43.6032" lon="-1.46262">
        <ele>9.27</ele>
        <time>2014-06-28T14:42:57Z</time>
      </trkpt>
      <trkpt lat="43.60322" lon="-1.46268">
        <ele>8.79</ele>
        <time>2014-06-28T14:42:58Z</time>
      </trkpt>
      <trkpt lat="43.60328" lon="-1.4628">
        <ele>8.31</ele>
        <time>2014-06-28T14:43:00Z</time>
      </trkpt>
      <trkpt lat="43.60334" lon="-1.46293">
        <ele>6.39</ele>
        <time>2014-06-28T14:43:02Z</time>
      </trkpt>
      <trkpt lat="43.60339" lon="-1.46307">
        <ele>5.91</ele>
        <time>2014-06-28T14:43:04Z</time>
      </trkpt>
      <trkpt lat="43.60347" lon="-1.46336">
        <ele>5.91</ele>
        <time>2014-06-28T14:43:08Z</time>
      </trkpt>
      <trkpt lat="43.60354" lon="-1.46385">
        <ele>5.42</ele>
        <time>2014-06-28T14:43:13Z</time>
      </trkpt>
      <trkpt lat="43.60372" lon="-1.4646">
        <ele>4.46</ele>
        <time>2014-06-28T14:43:22Z</time>
      </trkpt>
      <trkpt lat="43.60384" lon="-1.46521">
        <ele>5.42</ele>
        <time>2014-06-28T14:43:33Z</time>
      </trkpt>
      <trkpt lat="43.6039" lon="-1.46548">
        <ele>5.91</ele>
        <time>2014-06-28T14:43:38Z</time>
      </trkpt>
      <trkpt lat="43.60395" lon="-1.46589">
        <ele>6.39</ele>
        <time>2014-06-28T14:43:47Z</time>
      </trkpt>
      <trkpt lat="43.60398" lon="-1.46592">
        <ele>7.35</ele>
        <time>2014-06-28T14:43:49Z</time>
      </trkpt>
      <trkpt lat="43.6041" lon="-1.46582">
        <ele>7.35</ele>
        <time>2014-06-28T14:43:59Z</time>
      </trkpt>
      <trkpt lat="43.60432" lon="-1.46565">
        <ele>6.87</ele>
        <time>2014-06-28T14:44:10Z</time>
      </trkpt>
      <trkpt lat="43.6046" lon="-1.46544">
        <ele>6.87</ele>
        <time>2014-06-28T14:44:21Z</time>
      </trkpt>
      <trkpt lat="43.60479" lon="-1.46534">
        <ele>7.35</ele>
        <time>2014-06-28T14:44:31Z</time>
      </trkpt>
      <trkpt lat="43.6048" lon="-1.46534">
        <ele>7.35</ele>
        <time>2014-06-28T14:44:43Z</time>
      </trkpt>
      <trkpt lat="43.60481" lon="-1.46533">
        <ele>7.35</ele>
        <time>2014-06-28T14:44:44Z</time>
      </trkpt>
      <trkpt lat="43.60483" lon="-1.46538">
        <ele>7.83</ele>
        <time>2014-06-28T14:44:53Z</time>
      </trkpt>
      <trkpt lat="43.60483" lon="-1.46538">
        <ele>7.83</ele>
        <time>2014-06-28T14:45:27Z</time>
      </trkpt>
      <trkpt lat="43.60483" lon="-1.46539">
        <ele>7.35</ele>
        <time>2014-06-28T14:45:59Z</time>
      </trkpt>
      <trkpt lat="43.60482" lon="-1.46539">
        <ele>7.35</ele>
        <time>2014-06-28T14:46:26Z</time>
      </trkpt>
      <trkpt lat="43.60482" lon="-1.46539">
        <ele>6.39</ele>
        <time>2014-06-28T14:46:59Z</time>
      </trkpt>
      <trkpt lat="43.60482" lon="-1.46539">
        <ele>5.91</ele>
        <time>2014-06-28T14:47:27Z</time>
      </trkpt>
      <trkpt lat="43.60482" lon="-1.46538">
        <ele>5.91</ele>
        <time>2014-06-28T14:47:49Z</time>
      </trkpt>
      <trkpt lat="43.60483" lon="-1.46539">
        <ele>6.39</ele>
        <time>2014-06-28T14:48:19Z</time>
      </trkpt>
      <trkpt lat="43.60483" lon="-1.46539">
        <ele>6.39</ele>
        <time>2014-06-28T14:48:47Z</time>
      </trkpt>
      <trkpt lat="43.60483" lon="-1.46539">
        <ele>6.39</ele>
        <time>2014-06-28T14:49:10Z</time>
      </trkpt>
      <trkpt lat="43.60482" lon="-1.46539">
        <ele>6.87</ele>
        <time>2014-06-28T14:49:39Z</time>
      </trkpt>
      <trkpt lat="43.60482" lon="-1.46539">
        <ele>6.87</ele>
        <time>2014-06-28T14:50:02Z</time>
      </trkpt>
      <trkpt lat="43.60482" lon="-1.4654">
        <ele>6.87</ele>
        <time>2014-06-28T14:50:27Z</time>
      </trkpt>
      <trkpt lat="43.60483" lon="-1.4654">
        <ele>6.87</ele>
        <time>2014-06-28T14:50:54Z</time>
      </trkpt>
      <trkpt lat="43.60483" lon="-1.4654">
        <ele>7.35</ele>
        <time>2014-06-28T14:51:27Z</time>
      </trkpt>
      <trkpt lat="43.60484" lon="-1.46539">
        <ele>7.35</ele>
        <time>2014-06-28T14:51:54Z</time>
      </trkpt>
      <trkpt lat="43.60484" lon="-1.46539">
        <ele>6.39</ele>
        <time>2014-06-28T14:52:19Z</time>
      </trkpt>
      <trkpt lat="43.60484" lon="-1.46538">
        <ele>7.35</ele>
        <time>2014-06-28T14:52:36Z</time>
      </trkpt>
      <trkpt lat="43.60484" lon="-1.46538">
        <ele>6.39</ele>
        <time>2014-06-28T14:53:00Z</time>
      </trkpt>
      <trkpt lat="43.60485" lon="-1.46538">
        <ele>6.87</ele>
        <time>2014-06-28T14:53:21Z</time>
      </trkpt>
      <trkpt lat="43.60485" lon="-1.46539">
        <ele>6.87</ele>
        <time>2014-06-28T14:53:53Z</time>
      </trkpt>
      <trkpt lat="43.60485" lon="-1.46539">
        <ele>6.87</ele>
        <time>2014-06-28T14:54:17Z</time>
      </trkpt>
      <trkpt lat="43.60486" lon="-1.46539">
        <ele>6.87</ele>
        <time>2014-06-28T14:54:41Z</time>
      </trkpt>
      <trkpt lat="43.60485" lon="-1.46538">
        <ele>6.87</ele>
        <time>2014-06-28T14:54:54Z</time>
      </trkpt>
      <trkpt lat="43.60485" lon="-1.46538">
        <ele>6.87</ele>
        <time>2014-06-28T14:54:55Z</time>
      </trkpt>
      <trkpt lat="43.60471" lon="-1.46512">
        <ele>4.94</ele>
        <time>2014-06-28T14:55:04Z</time>
      </trkpt>
      <trkpt lat="43.60475" lon="-1.4648">
        <ele>4.46</ele>
        <time>2014-06-28T14:55:10Z</time>
      </trkpt>
      <trkpt lat="43.60479" lon="-1.46444">
        <ele>4.46</ele>
        <time>2014-06-28T14:55:16Z</time>
      </trkpt>
      <trkpt lat="43.6048" lon="-1.46432">
        <ele>4.46</ele>
        <time>2014-06-28T14:55:18Z</time>
      </trkpt>
      <trkpt lat="43.60474" lon="-1.46422">
        <ele>4.94</ele>
        <time>2014-06-28T14:55:21Z</time>
      </trkpt>
      <trkpt lat="43.60472" lon="-1.46404">
        <ele>5.42</ele>
        <time>2014-06-28T14:55:27Z</time>
      </trkpt>
      <trkpt lat="43.60471" lon="-1.46367">
        <ele>4.94</ele>
        <time>2014-06-28T14:55:35Z</time>
      </trkpt>
      <trkpt lat="43.60477" lon="-1.46351">
        <ele>6.87</ele>
        <time>2014-06-28T14:55:38Z</time>
      </trkpt>
      <trkpt lat="43.60489" lon="-1.46331">
        <ele>6.39</ele>
        <time>2014-06-28T14:55:46Z</time>
      </trkpt>
      <trkpt lat="43.60479" lon="-1.46312">
        <ele>6.39</ele>
        <time>2014-06-28T14:55:52Z</time>
      </trkpt>
      <trkpt lat="43.60474" lon="-1.46296">
        <ele>6.39</ele>
        <time>2014-06-28T14:55:54Z</time>
      </trkpt>
      <trkpt lat="43.60467" lon="-1.46274">
        <ele>6.87</ele>
        <time>2014-06-28T14:55:57Z</time>
      </trkpt>
      <trkpt lat="43.60456" lon="-1.46237">
        <ele>7.35</ele>
        <time>2014-06-28T14:56:04Z</time>
      </trkpt>
      <trkpt lat="43.60454" lon="-1.46232">
        <ele>7.35</ele>
        <time>2014-06-28T14:56:05Z</time>
      </trkpt>
      <trkpt lat="43.60447" lon="-1.46212">
        <ele>6.39</ele>
        <time>2014-06-28T14:56:08Z</time>
      </trkpt>
      <trkpt lat="43.60429" lon="-1.46159">
        <ele>4.94</ele>
        <time>2014-06-28T14:56:15Z</time>
      </trkpt>
      <trkpt lat="43.60415" lon="-1.46132">
        <ele>5.42</ele>
        <time>2014-06-28T14:56:21Z</time>
      </trkpt>
      <trkpt lat="43.6041" lon="-1.46122">
        <ele>5.91</ele>
        <time>2014-06-28T14:56:24Z</time>
      </trkpt>
      <trkpt lat="43.60406" lon="-1.46116">
        <ele>4.94</ele>
        <time>2014-06-28T14:56:26Z</time>
      </trkpt>
      <trkpt lat="43.60403" lon="-1.46072">
        <ele>4.46</ele>
        <time>2014-06-28T14:56:34Z</time>
      </trkpt>
      <trkpt lat="43.60398" lon="-1.4605">
        <ele>4.94</ele>
        <time>2014-06-28T14:56:39Z</time>
      </trkpt>
      <trkpt lat="43.60406" lon="-1.4602">
        <ele>4.46</ele>
        <time>2014-06-28T14:56:46Z</time>
      </trkpt>
      <trkpt lat="43.60407" lon="-1.45992">
        <ele>4.46</ele>
        <time>2014-06-28T14:56:51Z</time>
      </trkpt>
      <trkpt lat="43.60398" lon="-1.45983">
        <ele>4.94</ele>
        <time>2014-06-28T14:56:54Z</time>
      </trkpt>
      <trkpt lat="43.60397" lon="-1.45965">
        <ele>4.46</ele>
        <time>2014-06-28T14:57:00Z</time>
      </trkpt>
      <trkpt lat="43.60408" lon="-1.45952">
        <ele>4.94</ele>
        <time>2014-06-28T14:57:04Z</time>
      </trkpt>
      <trkpt lat="43.60401" lon="-1.45921">
        <ele>4.94</ele>
        <time>2014-06-28T14:57:12Z</time>
      </trkpt>
      <trkpt lat="43.60386" lon="-1.45918">
        <ele>5.42</ele>
        <time>2014-06-28T14:57:18Z</time>
      </trkpt>
      <trkpt lat="43.60376" lon="-1.4587">
        <ele>5.42</ele>
        <time>2014-06-28T14:57:26Z</time>
      </trkpt>
      <trkpt lat="43.60371" lon="-1.45851">
        <ele>4.46</ele>
        <time>2014-06-28T14:57:30Z</time>
      </trkpt>
      <trkpt lat="43.60348" lon="-1.45853">
        <ele>4.46</ele>
        <time>2014-06-28T14:57:35Z</time>
      </trkpt>
      <trkpt lat="43.60337" lon="-1.45855">
        <ele>3.98</ele>
        <time>2014-06-28T14:57:37Z</time>
      </trkpt>
      <trkpt lat="43.60312" lon="-1.45861">
        <ele>4.94</ele>
        <time>2014-06-28T14:57:42Z</time>
      </trkpt>
      <trkpt lat="43.60301" lon="-1.45872">
        <ele>4.46</ele>
        <time>2014-06-28T14:57:45Z</time>
      </trkpt>
      <trkpt lat="43.60274" lon="-1.45884">
        <ele>4.46</ele>
        <time>2014-06-28T14:57:52Z</time>
      </trkpt>
      <trkpt lat="43.60275" lon="-1.45875">
        <ele>4.94</ele>
        <time>2014-06-28T14:58:01Z</time>
      </trkpt>
      <trkpt lat="43.60274" lon="-1.45874">
        <ele>4.94</ele>
        <time>2014-06-28T14:58:07Z</time>
      </trkpt>
      <trkpt lat="43.60277" lon="-1.45861">
        <ele>4.46</ele>
        <time>2014-06-28T14:58:13Z</time>
      </trkpt>
      <trkpt lat="43.60293" lon="-1.45833">
        <ele>3.98</ele>
        <time>2014-06-28T14:58:20Z</time>
      </trkpt>
      <trkpt lat="43.60323" lon="-1.45794">
        <ele>3.98</ele>
        <time>2014-06-28T14:58:30Z</time>
      </trkpt>
      <trkpt lat="43.60329" lon="-1.45786">
        <ele>3.98</ele>
        <time>2014-06-28T14:58:32Z</time>
      </trkpt>
      <trkpt lat="43.60358" lon="-1.45779">
        <ele>3.02</ele>
        <time>2014-06-28T14:58:38Z</time>
      </trkpt>
      <trkpt lat="43.6041" lon="-1.45782">
        <ele>4.46</ele>
        <time>2014-06-28T14:58:48Z</time>
      </trkpt>
      <trkpt lat="43.60422" lon="-1.45783">
        <ele>3.98</ele>
        <time>2014-06-28T14:58:50Z</time>
      </trkpt>
      <trkpt lat="43.60457" lon="-1.45783">
        <ele>3.5</ele>
        <time>2014-06-28T14:58:57Z</time>
      </trkpt>
      <trkpt lat="43.60482" lon="-1.45772">
        <ele>3.5</ele>
        <time>2014-06-28T14:59:02Z</time>
      </trkpt>
      <trkpt lat="43.6049" lon="-1.45763">
        <ele>3.5</ele>
        <time>2014-06-28T14:59:04Z</time>
      </trkpt>
      <trkpt lat="43.60495" lon="-1.45728">
        <ele>4.94</ele>
        <time>2014-06-28T14:59:11Z</time>
      </trkpt>
      <trkpt lat="43.60504" lon="-1.45712">
        <ele>5.42</ele>
        <time>2014-06-28T14:59:15Z</time>
      </trkpt>
      <trkpt lat="43.60512" lon="-1.45703">
        <ele>5.91</ele>
        <time>2014-06-28T14:59:17Z</time>
      </trkpt>
      <trkpt lat="43.60534" lon="-1.45674">
        <ele>4.94</ele>
        <time>2014-06-28T14:59:24Z</time>
      </trkpt>
      <trkpt lat="43.6055" lon="-1.45656">
        <ele>5.42</ele>
        <time>2014-06-28T14:59:29Z</time>
      </trkpt>
      <trkpt lat="43.60559" lon="-1.45644">
        <ele>5.91</ele>
        <time>2014-06-28T14:59:38Z</time>
      </trkpt>
      <trkpt lat="43.60559" lon="-1.45643">
        <ele>6.39</ele>
        <time>2014-06-28T15:00:01Z</time>
      </trkpt>
      <trkpt lat="43.60562" lon="-1.45639">
        <ele>5.91</ele>
        <time>2014-06-28T15:00:23Z</time>
      </trkpt>
      <trkpt lat="43.60563" lon="-1.45638">
        <ele>6.39</ele>
        <time>2014-06-28T15:00:40Z</time>
      </trkpt>
      <trkpt lat="43.60564" lon="-1.45638">
        <ele>5.42</ele>
        <time>2014-06-28T15:00:49Z</time>
      </trkpt>
      <trkpt lat="43.60578" lon="-1.45635">
        <ele>6.39</ele>
        <time>2014-06-28T15:00:57Z</time>
      </trkpt>
      <trkpt lat="43.60605" lon="-1.45603">
        <ele>4.94</ele>
        <time>2014-06-28T15:01:08Z</time>
      </trkpt>
      <trkpt lat="43.60614" lon="-1.45603">
        <ele>4.46</ele>
        <time>2014-06-28T15:01:11Z</time>
      </trkpt>
      <trkpt lat="43.60629" lon="-1.45588">
        <ele>4.94</ele>
        <time>2014-06-28T15:01:15Z</time>
      </trkpt>
      <trkpt lat="43.60652" lon="-1.45583">
        <ele>3.98</ele>
        <time>2014-06-28T15:01:21Z</time>
      </trkpt>
      <trkpt lat="43.60665" lon="-1.45569">
        <ele>4.94</ele>
        <time>2014-06-28T15:01:26Z</time>
      </trkpt>
      <trkpt lat="43.60676" lon="-1.45575">
        <ele>4.94</ele>
        <time>2014-06-28T15:01:32Z</time>
      </trkpt>
      <trkpt lat="43.60693" lon="-1.45567">
        <ele>4.94</ele>
        <time>2014-06-28T15:01:37Z</time>
      </trkpt>
      <trkpt lat="43.60732" lon="-1.45555">
        <ele>5.42</ele>
        <time>2014-06-28T15:01:47Z</time>
      </trkpt>
      <trkpt lat="43.6074" lon="-1.45557">
        <ele>5.91</ele>
        <time>2014-06-28T15:01:51Z</time>
      </trkpt>
      <trkpt lat="43.60753" lon="-1.45547">
        <ele>5.42</ele>
        <time>2014-06-28T15:02:00Z</time>
      </trkpt>
      <trkpt lat="43.6077" lon="-1.45537">
        <ele>5.42</ele>
        <time>2014-06-28T15:02:08Z</time>
      </trkpt>
      <trkpt lat="43.60772" lon="-1.45533">
        <ele>4.94</ele>
        <time>2014-06-28T15:02:10Z</time>
      </trkpt>
      <trkpt lat="43.60778" lon="-1.4552">
        <ele>4.94</ele>
        <time>2014-06-28T15:02:14Z</time>
      </trkpt>
      <trkpt lat="43.60812" lon="-1.45506">
        <ele>4.94</ele>
        <time>2014-06-28T15:02:23Z</time>
      </trkpt>
      <trkpt lat="43.60823" lon="-1.45507">
        <ele>5.42</ele>
        <time>2014-06-28T15:02:26Z</time>
      </trkpt>
      <trkpt lat="43.60841" lon="-1.45507">
        <ele>5.42</ele>
        <time>2014-06-28T15:02:32Z</time>
      </trkpt>
      <trkpt lat="43.60845" lon="-1.45509">
        <ele>4.94</ele>
        <time>2014-06-28T15:02:33Z</time>
      </trkpt>
      <trkpt lat="43.60865" lon="-1.45535">
        <ele>5.91</ele>
        <time>2014-06-28T15:02:40Z</time>
      </trkpt>
      <trkpt lat="43.60896" lon="-1.4556">
        <ele>6.39</ele>
        <time>2014-06-28T15:02:49Z</time>
      </trkpt>
      <trkpt lat="43.60901" lon="-1.45572">
        <ele>6.39</ele>
        <time>2014-06-28T15:02:51Z</time>
      </trkpt>
      <trkpt lat="43.60919" lon="-1.4558">
        <ele>6.39</ele>
        <time>2014-06-28T15:02:57Z</time>
      </trkpt>
      <trkpt lat="43.60928" lon="-1.45582">
        <ele>5.42</ele>
        <time>2014-06-28T15:03:01Z</time>
      </trkpt>
      <trkpt lat="43.60948" lon="-1.45586">
        <ele>5.91</ele>
        <time>2014-06-28T15:03:05Z</time>
      </trkpt>
      <trkpt lat="43.60991" lon="-1.45588">
        <ele>6.39</ele>
        <time>2014-06-28T15:03:15Z</time>
      </trkpt>
      <trkpt lat="43.60994" lon="-1.45593">
        <ele>6.87</ele>
        <time>2014-06-28T15:03:29Z</time>
      </trkpt>
      <trkpt lat="43.61" lon="-1.45602">
        <ele>6.39</ele>
        <time>2014-06-28T15:03:43Z</time>
      </trkpt>
      <trkpt lat="43.61001" lon="-1.45607">
        <ele>6.39</ele>
        <time>2014-06-28T15:03:52Z</time>
      </trkpt>
      <trkpt lat="43.61003" lon="-1.45609">
        <ele>5.91</ele>
        <time>2014-06-28T15:03:55Z</time>
      </trkpt>
      <trkpt lat="43.61006" lon="-1.45607">
        <ele>6.39</ele>
        <time>2014-06-28T15:04:09Z</time>
      </trkpt>
      <trkpt lat="43.61001" lon="-1.45603">
        <ele>6.39</ele>
        <time>2014-06-28T15:04:14Z</time>
      </trkpt>
      <trkpt lat="43.61" lon="-1.45597">
        <ele>6.87</ele>
        <time>2014-06-28T15:04:18Z</time>
      </trkpt>
      <trkpt lat="43.60996" lon="-1.4557">
        <ele>6.87</ele>
        <time>2014-06-28T15:04:25Z</time>
      </trkpt>
      <trkpt lat="43.61006" lon="-1.45535">
        <ele>6.39</ele>
        <time>2014-06-28T15:04:33Z</time>
      </trkpt>
      <trkpt lat="43.61015" lon="-1.45524">
        <ele>6.39</ele>
        <time>2014-06-28T15:04:37Z</time>
      </trkpt>
      <trkpt lat="43.61023" lon="-1.45526">
        <ele>6.39</ele>
        <time>2014-06-28T15:04:40Z</time>
      </trkpt>
      <trkpt lat="43.61044" lon="-1.45524">
        <ele>7.35</ele>
        <time>2014-06-28T15:04:47Z</time>
      </trkpt>
      <trkpt lat="43.61079" lon="-1.45519">
        <ele>5.42</ele>
        <time>2014-06-28T15:04:56Z</time>
      </trkpt>
      <trkpt lat="43.61108" lon="-1.45506">
        <ele>5.91</ele>
        <time>2014-06-28T15:05:03Z</time>
      </trkpt>
      <trkpt lat="43.61112" lon="-1.45505">
        <ele>6.39</ele>
        <time>2014-06-28T15:05:04Z</time>
      </trkpt>
      <trkpt lat="43.61115" lon="-1.45504">
        <ele>4.94</ele>
        <time>2014-06-28T15:05:05Z</time>
      </trkpt>
      <trkpt lat="43.61138" lon="-1.4552">
        <ele>5.42</ele>
        <time>2014-06-28T15:05:11Z</time>
      </trkpt>
      <trkpt lat="43.61147" lon="-1.4552">
        <ele>4.46</ele>
        <time>2014-06-28T15:05:13Z</time>
      </trkpt>
      <trkpt lat="43.61164" lon="-1.45511">
        <ele>5.42</ele>
        <time>2014-06-28T15:05:17Z</time>
      </trkpt>
      <trkpt lat="43.61181" lon="-1.45498">
        <ele>6.39</ele>
        <time>2014-06-28T15:05:25Z</time>
      </trkpt>
      <trkpt lat="43.61178" lon="-1.45487">
        <ele>6.39</ele>
        <time>2014-06-28T15:05:33Z</time>
      </trkpt>
      <trkpt lat="43.61176" lon="-1.45483">
        <ele>6.39</ele>
        <time>2014-06-28T15:05:41Z</time>
      </trkpt>
      <trkpt lat="43.61171" lon="-1.45477">
        <ele>6.39</ele>
        <time>2014-06-28T15:05:45Z</time>
      </trkpt>
      <trkpt lat="43.61165" lon="-1.45472">
        <ele>6.39</ele>
        <time>2014-06-28T15:05:48Z</time>
      </trkpt>
      <trkpt lat="43.61172" lon="-1.45446">
        <ele>4.94</ele>
        <time>2014-06-28T15:05:56Z</time>
      </trkpt>
      <trkpt lat="43.61181" lon="-1.4543">
        <ele>4.94</ele>
        <time>2014-06-28T15:06:00Z</time>
      </trkpt>
      <trkpt lat="43.61199" lon="-1.45405">
        <ele>6.39</ele>
        <time>2014-06-28T15:06:06Z</time>
      </trkpt>
      <trkpt lat="43.61206" lon="-1.45397">
        <ele>4.94</ele>
        <time>2014-06-28T15:06:08Z</time>
      </trkpt>
      <trkpt lat="43.61218" lon="-1.45386">
        <ele>3.98</ele>
        <time>2014-06-28T15:06:11Z</time>
      </trkpt>
      <trkpt lat="43.61225" lon="-1.45375">
        <ele>3.98</ele>
        <time>2014-06-28T15:06:14Z</time>
      </trkpt>
      <trkpt lat="43.61245" lon="-1.45355">
        <ele>7.35</ele>
        <time>2014-06-28T15:06:18Z</time>
      </trkpt>
      <trkpt lat="43.61249" lon="-1.45351">
        <ele>6.87</ele>
        <time>2014-06-28T15:06:19Z</time>
      </trkpt>
      <trkpt lat="43.61265" lon="-1.45335">
        <ele>7.35</ele>
        <time>2014-06-28T15:06:24Z</time>
      </trkpt>
      <trkpt lat="43.61303" lon="-1.45294">
        <ele>6.39</ele>
        <time>2014-06-28T15:06:35Z</time>
      </trkpt>
      <trkpt lat="43.6133" lon="-1.45261">
        <ele>5.42</ele>
        <time>2014-06-28T15:06:45Z</time>
      </trkpt>
      <trkpt lat="43.61342" lon="-1.45247">
        <ele>5.91</ele>
        <time>2014-06-28T15:06:51Z</time>
      </trkpt>
      <trkpt lat="43.61351" lon="-1.4524">
        <ele>4.46</ele>
        <time>2014-06-28T15:06:55Z</time>
      </trkpt>
      <trkpt lat="43.61385" lon="-1.45195">
        <ele>3.98</ele>
        <time>2014-06-28T15:07:06Z</time>
      </trkpt>
      <trkpt lat="43.61399" lon="-1.45178">
        <ele>4.94</ele>
        <time>2014-06-28T15:07:10Z</time>
      </trkpt>
      <trkpt lat="43.61432" lon="-1.45135">
        <ele>4.46</ele>
        <time>2014-06-28T15:07:19Z</time>
      </trkpt>
      <trkpt lat="43.61468" lon="-1.45072">
        <ele>4.46</ele>
        <time>2014-06-28T15:07:31Z</time>
      </trkpt>
      <trkpt lat="43.6148" lon="-1.45052">
        <ele>3.98</ele>
        <time>2014-06-28T15:07:35Z</time>
      </trkpt>
      <trkpt lat="43.61489" lon="-1.45036">
        <ele>3.5</ele>
        <time>2014-06-28T15:07:38Z</time>
      </trkpt>
      <trkpt lat="43.61497" lon="-1.45019">
        <ele>3.5</ele>
        <time>2014-06-28T15:07:41Z</time>
      </trkpt>
      <trkpt lat="43.61506" lon="-1.44998">
        <ele>2.54</ele>
        <time>2014-06-28T15:07:45Z</time>
      </trkpt>
      <trkpt lat="43.61515" lon="-1.44983">
        <ele>3.5</ele>
        <time>2014-06-28T15:07:48Z</time>
      </trkpt>
      <trkpt lat="43.61552" lon="-1.44925">
        <ele>4.46</ele>
        <time>2014-06-28T15:07:59Z</time>
      </trkpt>
      <trkpt lat="43.61555" lon="-1.4492">
        <ele>3.98</ele>
        <time>2014-06-28T15:08:00Z</time>
      </trkpt>
      <trkpt lat="43.61571" lon="-1.44887">
        <ele>3.5</ele>
        <time>2014-06-28T15:08:06Z</time>
      </trkpt>
      <trkpt lat="43.61583" lon="-1.44868">
        <ele>3.02</ele>
        <time>2014-06-28T15:08:10Z</time>
      </trkpt>
      <trkpt lat="43.61597" lon="-1.4484">
        <ele>3.5</ele>
        <time>2014-06-28T15:08:15Z</time>
      </trkpt>
      <trkpt lat="43.61616" lon="-1.44808">
        <ele>3.02</ele>
        <time>2014-06-28T15:08:21Z</time>
      </trkpt>
      <trkpt lat="43.61634" lon="-1.44776">
        <ele>2.54</ele>
        <time>2014-06-28T15:08:27Z</time>
      </trkpt>
      <trkpt lat="43.61651" lon="-1.44746">
        <ele>2.54</ele>
        <time>2014-06-28T15:08:32Z</time>
      </trkpt>
      <trkpt lat="43.61661" lon="-1.44723">
        <ele>3.02</ele>
        <time>2014-06-28T15:08:36Z</time>
      </trkpt>
      <trkpt lat="43.61667" lon="-1.44711">
        <ele>2.54</ele>
        <time>2014-06-28T15:08:38Z</time>
      </trkpt>
      <trkpt lat="43.61679" lon="-1.44689">
        <ele>1.58</ele>
        <time>2014-06-28T15:08:42Z</time>
      </trkpt>
      <trkpt lat="43.61688" lon="-1.44662">
        <ele>2.54</ele>
        <time>2014-06-28T15:08:46Z</time>
      </trkpt>
      <trkpt lat="43.61704" lon="-1.44625">
        <ele>2.54</ele>
        <time>2014-06-28T15:08:52Z</time>
      </trkpt>
      <trkpt lat="43.61718" lon="-1.44595">
        <ele>3.02</ele>
        <time>2014-06-28T15:08:57Z</time>
      </trkpt>
      <trkpt lat="43.61732" lon="-1.44582">
        <ele>2.06</ele>
        <time>2014-06-28T15:09:01Z</time>
      </trkpt>
      <trkpt lat="43.61749" lon="-1.44574">
        <ele>3.02</ele>
        <time>2014-06-28T15:09:05Z</time>
      </trkpt>
      <trkpt lat="43.61778" lon="-1.4456">
        <ele>1.58</ele>
        <time>2014-06-28T15:09:11Z</time>
      </trkpt>
      <trkpt lat="43.61795" lon="-1.44552">
        <ele>2.54</ele>
        <time>2014-06-28T15:09:15Z</time>
      </trkpt>
      <trkpt lat="43.61811" lon="-1.44535">
        <ele>2.06</ele>
        <time>2014-06-28T15:09:19Z</time>
      </trkpt>
      <trkpt lat="43.61854" lon="-1.44502">
        <ele>2.54</ele>
        <time>2014-06-28T15:09:30Z</time>
      </trkpt>
      <trkpt lat="43.61858" lon="-1.44498">
        <ele>3.02</ele>
        <time>2014-06-28T15:09:31Z</time>
      </trkpt>
      <trkpt lat="43.61882" lon="-1.44481">
        <ele>2.54</ele>
        <time>2014-06-28T15:09:36Z</time>
      </trkpt>
      <trkpt lat="43.61902" lon="-1.44462">
        <ele>1.58</ele>
        <time>2014-06-28T15:09:41Z</time>
      </trkpt>
      <trkpt lat="43.61914" lon="-1.44453">
        <ele>2.06</ele>
        <time>2014-06-28T15:09:44Z</time>
      </trkpt>
      <trkpt lat="43.61924" lon="-1.44444">
        <ele>2.54</ele>
        <time>2014-06-28T15:09:46Z</time>
      </trkpt>
      <trkpt lat="43.61981" lon="-1.44414">
        <ele>3.5</ele>
        <time>2014-06-28T15:09:58Z</time>
      </trkpt>
      <trkpt lat="43.61985" lon="-1.44412">
        <ele>3.5</ele>
        <time>2014-06-28T15:10:00Z</time>
      </trkpt>
      <trkpt lat="43.61993" lon="-1.44413">
        <ele>3.5</ele>
        <time>2014-06-28T15:10:11Z</time>
      </trkpt>
      <trkpt lat="43.62" lon="-1.44407">
        <ele>3.5</ele>
        <time>2014-06-28T15:10:24Z</time>
      </trkpt>
      <trkpt lat="43.62001" lon="-1.44406">
        <ele>3.02</ele>
        <time>2014-06-28T15:10:25Z</time>
      </trkpt>
      <trkpt lat="43.62005" lon="-1.44401">
        <ele>3.5</ele>
        <time>2014-06-28T15:10:29Z</time>
      </trkpt>
      <trkpt lat="43.62027" lon="-1.44389">
        <ele>3.02</ele>
        <time>2014-06-28T15:10:36Z</time>
      </trkpt>
      <trkpt lat="43.62066" lon="-1.44368">
        <ele>3.02</ele>
        <time>2014-06-28T15:10:45Z</time>
      </trkpt>
      <trkpt lat="43.62069" lon="-1.44366">
        <ele>3.02</ele>
        <time>2014-06-28T15:10:46Z</time>
      </trkpt>
      <trkpt lat="43.62103" lon="-1.44348">
        <ele>3.02</ele>
        <time>2014-06-28T15:10:54Z</time>
      </trkpt>
      <trkpt lat="43.62121" lon="-1.44336">
        <ele>2.06</ele>
        <time>2014-06-28T15:10:58Z</time>
      </trkpt>
      <trkpt lat="43.62167" lon="-1.44319">
        <ele>3.98</ele>
        <time>2014-06-28T15:11:09Z</time>
      </trkpt>
      <trkpt lat="43.62169" lon="-1.44319">
        <ele>3.98</ele>
        <time>2014-06-28T15:11:10Z</time>
      </trkpt>
      <trkpt lat="43.62178" lon="-1.44317">
        <ele>4.46</ele>
        <time>2014-06-28T15:11:20Z</time>
      </trkpt>
      <trkpt lat="43.62179" lon="-1.44317">
        <ele>3.98</ele>
        <time>2014-06-28T15:11:21Z</time>
      </trkpt>
      <trkpt lat="43.62195" lon="-1.44308">
        <ele>2.54</ele>
        <time>2014-06-28T15:11:28Z</time>
      </trkpt>
      <trkpt lat="43.62236" lon="-1.44291">
        <ele>3.5</ele>
        <time>2014-06-28T15:11:40Z</time>
      </trkpt>
      <trkpt lat="43.62261" lon="-1.44278">
        <ele>3.02</ele>
        <time>2014-06-28T15:11:46Z</time>
      </trkpt>
      <trkpt lat="43.62298" lon="-1.44261">
        <ele>2.54</ele>
        <time>2014-06-28T15:11:56Z</time>
      </trkpt>
      <trkpt lat="43.62358" lon="-1.44233">
        <ele>3.02</ele>
        <time>2014-06-28T15:12:10Z</time>
      </trkpt>
      <trkpt lat="43.62409" lon="-1.44226">
        <ele>2.54</ele>
        <time>2014-06-28T15:12:22Z</time>
      </trkpt>
      <trkpt lat="43.62436" lon="-1.44224">
        <ele>2.54</ele>
        <time>2014-06-28T15:12:28Z</time>
      </trkpt>
      <trkpt lat="43.6246" lon="-1.44219">
        <ele>3.02</ele>
        <time>2014-06-28T15:12:32Z</time>
      </trkpt>
      <trkpt lat="43.62518" lon="-1.44214">
        <ele>2.54</ele>
        <time>2014-06-28T15:12:45Z</time>
      </trkpt>
      <trkpt lat="43.62559" lon="-1.44211">
        <ele>3.98</ele>
        <time>2014-06-28T15:12:55Z</time>
      </trkpt>
      <trkpt lat="43.62584" lon="-1.44217">
        <ele>3.02</ele>
        <time>2014-06-28T15:13:01Z</time>
      </trkpt>
      <trkpt lat="43.62598" lon="-1.44222">
        <ele>3.5</ele>
        <time>2014-06-28T15:13:04Z</time>
      </trkpt>
      <trkpt lat="43.62611" lon="-1.44228">
        <ele>3.02</ele>
        <time>2014-06-28T15:13:07Z</time>
      </trkpt>
      <trkpt lat="43.62626" lon="-1.44235">
        <ele>3.5</ele>
        <time>2014-06-28T15:13:11Z</time>
      </trkpt>
      <trkpt lat="43.62644" lon="-1.44246">
        <ele>3.02</ele>
        <time>2014-06-28T15:13:15Z</time>
      </trkpt>
      <trkpt lat="43.62661" lon="-1.44258">
        <ele>2.06</ele>
        <time>2014-06-28T15:13:23Z</time>
      </trkpt>
      <trkpt lat="43.62669" lon="-1.44265">
        <ele>3.02</ele>
        <time>2014-06-28T15:13:28Z</time>
      </trkpt>
      <trkpt lat="43.62698" lon="-1.44286">
        <ele>2.54</ele>
        <time>2014-06-28T15:13:39Z</time>
      </trkpt>
      <trkpt lat="43.62729" lon="-1.44309">
        <ele>3.5</ele>
        <time>2014-06-28T15:13:48Z</time>
      </trkpt>
      <trkpt lat="43.6274" lon="-1.44318">
        <ele>3.5</ele>
        <time>2014-06-28T15:13:51Z</time>
      </trkpt>
      <trkpt lat="43.62769" lon="-1.44332">
        <ele>3.02</ele>
        <time>2014-06-28T15:14:01Z</time>
      </trkpt>
      <trkpt lat="43.62798" lon="-1.44354">
        <ele>3.5</ele>
        <time>2014-06-28T15:14:12Z</time>
      </trkpt>
      <trkpt lat="43.62812" lon="-1.4436">
        <ele>3.98</ele>
        <time>2014-06-28T15:14:16Z</time>
      </trkpt>
      <trkpt lat="43.62841" lon="-1.44379">
        <ele>4.46</ele>
        <time>2014-06-28T15:14:22Z</time>
      </trkpt>
      <trkpt lat="43.62869" lon="-1.44389">
        <ele>4.46</ele>
        <time>2014-06-28T15:14:28Z</time>
      </trkpt>
      <trkpt lat="43.6289" lon="-1.44382">
        <ele>4.94</ele>
        <time>2014-06-28T15:14:34Z</time>
      </trkpt>
      <trkpt lat="43.62897" lon="-1.44386">
        <ele>3.98</ele>
        <time>2014-06-28T15:14:37Z</time>
      </trkpt>
      <trkpt lat="43.62892" lon="-1.44403">
        <ele>4.94</ele>
        <time>2014-06-28T15:14:42Z</time>
      </trkpt>
      <trkpt lat="43.62883" lon="-1.44416">
        <ele>3.5</ele>
        <time>2014-06-28T15:14:48Z</time>
      </trkpt>
      <trkpt lat="43.62872" lon="-1.44426">
        <ele>4.46</ele>
        <time>2014-06-28T15:14:54Z</time>
      </trkpt>
      <trkpt lat="43.6284" lon="-1.4446">
        <ele>4.46</ele>
        <time>2014-06-28T15:15:08Z</time>
      </trkpt>
      <trkpt lat="43.62805" lon="-1.44448">
        <ele>3.98</ele>
        <time>2014-06-28T15:15:18Z</time>
      </trkpt>
      <trkpt lat="43.62755" lon="-1.44434">
        <ele>4.94</ele>
        <time>2014-06-28T15:15:32Z</time>
      </trkpt>
      <trkpt lat="43.62707" lon="-1.44424">
        <ele>3.98</ele>
        <time>2014-06-28T15:15:44Z</time>
      </trkpt>
      <trkpt lat="43.62675" lon="-1.44421">
        <ele>3.98</ele>
        <time>2014-06-28T15:15:52Z</time>
      </trkpt>
      <trkpt lat="43.62646" lon="-1.44415">
        <ele>3.5</ele>
        <time>2014-06-28T15:15:59Z</time>
      </trkpt>
      <trkpt lat="43.62622" lon="-1.44408">
        <ele>4.46</ele>
        <time>2014-06-28T15:16:05Z</time>
      </trkpt>
      <trkpt lat="43.62582" lon="-1.44405">
        <ele>3.5</ele>
        <time>2014-06-28T15:16:16Z</time>
      </trkpt>
      <trkpt lat="43.62528" lon="-1.44405">
        <ele>3.02</ele>
        <time>2014-06-28T15:16:31Z</time>
      </trkpt>
      <trkpt lat="43.62475" lon="-1.44404">
        <ele>3.98</ele>
        <time>2014-06-28T15:16:46Z</time>
      </trkpt>
      <trkpt lat="43.62451" lon="-1.44402">
        <ele>3.98</ele>
        <time>2014-06-28T15:16:57Z</time>
      </trkpt>
      <trkpt lat="43.62447" lon="-1.44402">
        <ele>3.98</ele>
        <time>2014-06-28T15:16:59Z</time>
      </trkpt>
      <trkpt lat="43.62428" lon="-1.44402">
        <ele>3.02</ele>
        <time>2014-06-28T15:17:11Z</time>
      </trkpt>
      <trkpt lat="43.6238" lon="-1.44404">
        <ele>3.98</ele>
        <time>2014-06-28T15:17:25Z</time>
      </trkpt>
      <trkpt lat="43.62335" lon="-1.44404">
        <ele>4.46</ele>
        <time>2014-06-28T15:17:37Z</time>
      </trkpt>
      <trkpt lat="43.62284" lon="-1.44371">
        <ele>3.98</ele>
        <time>2014-06-28T15:17:52Z</time>
      </trkpt>
      <trkpt lat="43.62249" lon="-1.4436">
        <ele>3.5</ele>
        <time>2014-06-28T15:18:02Z</time>
      </trkpt>
      <trkpt lat="43.62217" lon="-1.44372">
        <ele>2.54</ele>
        <time>2014-06-28T15:18:12Z</time>
      </trkpt>
      <trkpt lat="43.62215" lon="-1.44373">
        <ele>2.54</ele>
        <time>2014-06-28T15:18:13Z</time>
      </trkpt>
      <trkpt lat="43.62204" lon="-1.44369">
        <ele>4.94</ele>
        <time>2014-06-28T15:18:19Z</time>
      </trkpt>
      <trkpt lat="43.622" lon="-1.44365">
        <ele>3.5</ele>
        <time>2014-06-28T15:18:21Z</time>
      </trkpt>
      <trkpt lat="43.62194" lon="-1.44358">
        <ele>2.54</ele>
        <time>2014-06-28T15:18:25Z</time>
      </trkpt>
      <trkpt lat="43.62191" lon="-1.44356">
        <ele>6.87</ele>
        <time>2014-06-28T15:18:27Z</time>
      </trkpt>
      <trkpt lat="43.62189" lon="-1.44357">
        <ele>2.54</ele>
        <time>2014-06-28T15:18:29Z</time>
      </trkpt>
      <trkpt lat="43.62174" lon="-1.44373">
        <ele>3.5</ele>
        <time>2014-06-28T15:18:39Z</time>
      </trkpt>
      <trkpt lat="43.62168" lon="-1.44382">
        <ele>3.02</ele>
        <time>2014-06-28T15:18:43Z</time>
      </trkpt>
      <trkpt lat="43.62157" lon="-1.44403">
        <ele>2.06</ele>
        <time>2014-06-28T15:18:48Z</time>
      </trkpt>
      <trkpt lat="43.62154" lon="-1.44407">
        <ele>1.1</ele>
        <time>2014-06-28T15:18:49Z</time>
      </trkpt>
      <trkpt lat="43.62139" lon="-1.44441">
        <ele>2.54</ele>
        <time>2014-06-28T15:18:57Z</time>
      </trkpt>
      <trkpt lat="43.62137" lon="-1.44445">
        <ele>2.54</ele>
        <time>2014-06-28T15:18:58Z</time>
      </trkpt>
      <trkpt lat="43.62115" lon="-1.44485">
        <ele>3.02</ele>
        <time>2014-06-28T15:19:08Z</time>
      </trkpt>
      <trkpt lat="43.62082" lon="-1.4453">
        <ele>1.58</ele>
        <time>2014-06-28T15:19:19Z</time>
      </trkpt>
      <trkpt lat="43.62051" lon="-1.44563">
        <ele>3.02</ele>
        <time>2014-06-28T15:19:29Z</time>
      </trkpt>
      <trkpt lat="43.62023" lon="-1.44594">
        <ele>2.54</ele>
        <time>2014-06-28T15:19:39Z</time>
      </trkpt>
      <trkpt lat="43.62005" lon="-1.44618">
        <ele>3.02</ele>
        <time>2014-06-28T15:19:46Z</time>
      </trkpt>
      <trkpt lat="43.61975" lon="-1.44648">
        <ele>2.54</ele>
        <time>2014-06-28T15:19:56Z</time>
      </trkpt>
      <trkpt lat="43.6195" lon="-1.44669">
        <ele>2.54</ele>
        <time>2014-06-28T15:20:05Z</time>
      </trkpt>
      <trkpt lat="43.61919" lon="-1.447">
        <ele>3.98</ele>
        <time>2014-06-28T15:20:15Z</time>
      </trkpt>
      <trkpt lat="43.61895" lon="-1.44723">
        <ele>2.54</ele>
        <time>2014-06-28T15:20:23Z</time>
      </trkpt>
      <trkpt lat="43.61869" lon="-1.44753">
        <ele>2.54</ele>
        <time>2014-06-28T15:20:32Z</time>
      </trkpt>
      <trkpt lat="43.61847" lon="-1.44771">
        <ele>3.5</ele>
        <time>2014-06-28T15:20:38Z</time>
      </trkpt>
      <trkpt lat="43.61813" lon="-1.4482">
        <ele>3.98</ele>
        <time>2014-06-28T15:20:51Z</time>
      </trkpt>
      <trkpt lat="43.61787" lon="-1.44863">
        <ele>4.46</ele>
        <time>2014-06-28T15:21:02Z</time>
      </trkpt>
      <trkpt lat="43.61765" lon="-1.44882">
        <ele>3.5</ele>
        <time>2014-06-28T15:21:09Z</time>
      </trkpt>
      <trkpt lat="43.61752" lon="-1.44891">
        <ele>1.58</ele>
        <time>2014-06-28T15:21:12Z</time>
      </trkpt>
      <trkpt lat="43.61734" lon="-1.449">
        <ele>2.54</ele>
        <time>2014-06-28T15:21:17Z</time>
      </trkpt>
      <trkpt lat="43.61709" lon="-1.44913">
        <ele>2.54</ele>
        <time>2014-06-28T15:21:23Z</time>
      </trkpt>
      <trkpt lat="43.61669" lon="-1.44957">
        <ele>3.5</ele>
        <time>2014-06-28T15:21:36Z</time>
      </trkpt>
      <trkpt lat="43.61666" lon="-1.44959">
        <ele>3.5</ele>
        <time>2014-06-28T15:21:37Z</time>
      </trkpt>
      <trkpt lat="43.61643" lon="-1.45004">
        <ele>4.46</ele>
        <time>2014-06-28T15:21:48Z</time>
      </trkpt>
      <trkpt lat="43.61624" lon="-1.45028">
        <ele>3.5</ele>
        <time>2014-06-28T15:21:57Z</time>
      </trkpt>
      <trkpt lat="43.61629" lon="-1.45044">
        <ele>5.91</ele>
        <time>2014-06-28T15:22:03Z</time>
      </trkpt>
      <trkpt lat="43.61643" lon="-1.45093">
        <ele>5.91</ele>
        <time>2014-06-28T15:22:15Z</time>
      </trkpt>
      <trkpt lat="43.61646" lon="-1.45101">
        <ele>6.87</ele>
        <time>2014-06-28T15:22:17Z</time>
      </trkpt>
      <trkpt lat="43.61649" lon="-1.45115">
        <ele>5.91</ele>
        <time>2014-06-28T15:22:20Z</time>
      </trkpt>
      <trkpt lat="43.61651" lon="-1.45132">
        <ele>6.87</ele>
        <time>2014-06-28T15:22:24Z</time>
      </trkpt>
      <trkpt lat="43.61666" lon="-1.4518">
        <ele>6.39</ele>
        <time>2014-06-28T15:22:34Z</time>
      </trkpt>
      <trkpt lat="43.61678" lon="-1.45215">
        <ele>4.46</ele>
        <time>2014-06-28T15:22:42Z</time>
      </trkpt>
      <trkpt lat="43.61682" lon="-1.45229">
        <ele>7.83</ele>
        <time>2014-06-28T15:22:45Z</time>
      </trkpt>
      <trkpt lat="43.61683" lon="-1.45233">
        <ele>7.83</ele>
        <time>2014-06-28T15:22:46Z</time>
      </trkpt>
      <trkpt lat="43.61695" lon="-1.45267">
        <ele>8.31</ele>
        <time>2014-06-28T15:22:55Z</time>
      </trkpt>
      <trkpt lat="43.61697" lon="-1.45268">
        <ele>7.83</ele>
        <time>2014-06-28T15:23:08Z</time>
      </trkpt>
      <trkpt lat="43.61699" lon="-1.45268">
        <ele>7.35</ele>
        <time>2014-06-28T15:23:19Z</time>
      </trkpt>
      <trkpt lat="43.61702" lon="-1.45267">
        <ele>6.39</ele>
        <time>2014-06-28T15:23:21Z</time>
      </trkpt>
      <trkpt lat="43.61703" lon="-1.45267">
        <ele>6.39</ele>
        <time>2014-06-28T15:23:22Z</time>
      </trkpt>
      <trkpt lat="43.61735" lon="-1.45273">
        <ele>6.39</ele>
        <time>2014-06-28T15:23:32Z</time>
      </trkpt>
      <trkpt lat="43.6174" lon="-1.45269">
        <ele>5.91</ele>
        <time>2014-06-28T15:23:34Z</time>
      </trkpt>
      <trkpt lat="43.61768" lon="-1.45239">
        <ele>5.91</ele>
        <time>2014-06-28T15:23:45Z</time>
      </trkpt>
      <trkpt lat="43.61787" lon="-1.45254">
        <ele>5.42</ele>
        <time>2014-06-28T15:23:53Z</time>
      </trkpt>
      <trkpt lat="43.61789" lon="-1.45259">
        <ele>4.94</ele>
        <time>2014-06-28T15:23:55Z</time>
      </trkpt>
      <trkpt lat="43.61808" lon="-1.45282">
        <ele>3.98</ele>
        <time>2014-06-28T15:24:02Z</time>
      </trkpt>
      <trkpt lat="43.61823" lon="-1.45278">
        <ele>5.91</ele>
        <time>2014-06-28T15:24:08Z</time>
      </trkpt>
      <trkpt lat="43.61834" lon="-1.45262">
        <ele>6.39</ele>
        <time>2014-06-28T15:24:14Z</time>
      </trkpt>
      <trkpt lat="43.6184" lon="-1.4526">
        <ele>5.42</ele>
        <time>2014-06-28T15:24:16Z</time>
      </trkpt>
      <trkpt lat="43.61876" lon="-1.45259">
        <ele>4.46</ele>
        <time>2014-06-28T15:24:25Z</time>
      </trkpt>
      <trkpt lat="43.61888" lon="-1.45254">
        <ele>1.58</ele>
        <time>2014-06-28T15:24:28Z</time>
      </trkpt>
      <trkpt lat="43.61908" lon="-1.45236">
        <ele>2.54</ele>
        <time>2014-06-28T15:24:33Z</time>
      </trkpt>
      <trkpt lat="43.61916" lon="-1.45239">
        <ele>3.5</ele>
        <time>2014-06-28T15:24:36Z</time>
      </trkpt>
      <trkpt lat="43.61926" lon="-1.45232">
        <ele>2.54</ele>
        <time>2014-06-28T15:24:40Z</time>
      </trkpt>
      <trkpt lat="43.61935" lon="-1.4522">
        <ele>3.5</ele>
        <time>2014-06-28T15:24:46Z</time>
      </trkpt>
      <trkpt lat="43.61938" lon="-1.45215">
        <ele>3.02</ele>
        <time>2014-06-28T15:24:49Z</time>
      </trkpt>
      <trkpt lat="43.61969" lon="-1.45189">
        <ele>2.54</ele>
        <time>2014-06-28T15:24:59Z</time>
      </trkpt>
      <trkpt lat="43.61982" lon="-1.45156">
        <ele>3.5</ele>
        <time>2014-06-28T15:25:07Z</time>
      </trkpt>
      <trkpt lat="43.61995" lon="-1.45146">
        <ele>6.39</ele>
        <time>2014-06-28T15:25:12Z</time>
      </trkpt>
      <trkpt lat="43.61997" lon="-1.45145">
        <ele>6.87</ele>
        <time>2014-06-28T15:25:13Z</time>
      </trkpt>
      <trkpt lat="43.62003" lon="-1.45141">
        <ele>9.75</ele>
        <time>2014-06-28T15:25:17Z</time>
      </trkpt>
      <trkpt lat="43.6201" lon="-1.45138">
        <ele>8.31</ele>
        <time>2014-06-28T15:25:23Z</time>
      </trkpt>
      <trkpt lat="43.62029" lon="-1.45125">
        <ele>9.27</ele>
        <time>2014-06-28T15:25:28Z</time>
      </trkpt>
      <trkpt lat="43.62042" lon="-1.45135">
        <ele>10.23</ele>
        <time>2014-06-28T15:25:39Z</time>
      </trkpt>
      <trkpt lat="43.62043" lon="-1.45135">
        <ele>12.63</ele>
        <time>2014-06-28T15:25:43Z</time>
      </trkpt>
      <trkpt lat="43.62044" lon="-1.45137">
        <ele>10.71</ele>
        <time>2014-06-28T15:26:02Z</time>
      </trkpt>
      <trkpt lat="43.62044" lon="-1.45138">
        <ele>11.19</ele>
        <time>2014-06-28T15:26:09Z</time>
      </trkpt>
      <trkpt lat="43.62049" lon="-1.45152">
        <ele>7.35</ele>
        <time>2014-06-28T15:26:15Z</time>
      </trkpt>
      <trkpt lat="43.6205" lon="-1.45161">
        <ele>5.42</ele>
        <time>2014-06-28T15:26:17Z</time>
      </trkpt>
      <trkpt lat="43.62047" lon="-1.45166">
        <ele>6.87</ele>
        <time>2014-06-28T15:26:19Z</time>
      </trkpt>
      <trkpt lat="43.62034" lon="-1.45176">
        <ele>8.31</ele>
        <time>2014-06-28T15:26:23Z</time>
      </trkpt>
      <trkpt lat="43.62035" lon="-1.45191">
        <ele>7.35</ele>
        <time>2014-06-28T15:26:28Z</time>
      </trkpt>
      <trkpt lat="43.62035" lon="-1.45195">
        <ele>7.35</ele>
        <time>2014-06-28T15:26:30Z</time>
      </trkpt>
      <trkpt lat="43.62037" lon="-1.45207">
        <ele>3.98</ele>
        <time>2014-06-28T15:26:34Z</time>
      </trkpt>
      <trkpt lat="43.62033" lon="-1.45219">
        <ele>5.91</ele>
        <time>2014-06-28T15:26:36Z</time>
      </trkpt>
      <trkpt lat="43.62033" lon="-1.4522">
        <ele>5.42</ele>
        <time>2014-06-28T15:26:37Z</time>
      </trkpt>
      <trkpt lat="43.62047" lon="-1.45222">
        <ele>3.98</ele>
        <time>2014-06-28T15:26:43Z</time>
      </trkpt>
      <trkpt lat="43.6205" lon="-1.45222">
        <ele>3.98</ele>
        <time>2014-06-28T15:26:44Z</time>
      </trkpt>
      <trkpt lat="43.62059" lon="-1.45217">
        <ele>3.5</ele>
        <time>2014-06-28T15:26:49Z</time>
      </trkpt>
      <trkpt lat="43.62076" lon="-1.45248">
        <ele>4.46</ele>
        <time>2014-06-28T15:26:57Z</time>
      </trkpt>
      <trkpt lat="43.62085" lon="-1.45276">
        <ele>4.94</ele>
        <time>2014-06-28T15:27:04Z</time>
      </trkpt>
      <trkpt lat="43.62079" lon="-1.45294">
        <ele>4.94</ele>
        <time>2014-06-28T15:27:16Z</time>
      </trkpt>
      <trkpt lat="43.62075" lon="-1.45299">
        <ele>3.98</ele>
        <time>2014-06-28T15:27:28Z</time>
      </trkpt>
      <trkpt lat="43.62075" lon="-1.45299">
        <ele>4.94</ele>
        <time>2014-06-28T15:27:49Z</time>
      </trkpt>
      <trkpt lat="43.62074" lon="-1.45299">
        <ele>3.98</ele>
        <time>2014-06-28T15:27:53Z</time>
      </trkpt>
      <trkpt lat="43.62067" lon="-1.45304">
        <ele>3.5</ele>
        <time>2014-06-28T15:27:57Z</time>
      </trkpt>
      <trkpt lat="43.62038" lon="-1.45322">
        <ele>4.94</ele>
        <time>2014-06-28T15:28:09Z</time>
      </trkpt>
      <trkpt lat="43.62023" lon="-1.45332">
        <ele>3.02</ele>
        <time>2014-06-28T15:28:14Z</time>
      </trkpt>
      <trkpt lat="43.62014" lon="-1.45339">
        <ele>4.94</ele>
        <time>2014-06-28T15:28:17Z</time>
      </trkpt>
      <trkpt lat="43.61982" lon="-1.45359">
        <ele>3.5</ele>
        <time>2014-06-28T15:28:28Z</time>
      </trkpt>
      <trkpt lat="43.61952" lon="-1.45389">
        <ele>3.5</ele>
        <time>2014-06-28T15:28:39Z</time>
      </trkpt>
      <trkpt lat="43.6194" lon="-1.45403">
        <ele>3.5</ele>
        <time>2014-06-28T15:28:43Z</time>
      </trkpt>
      <trkpt lat="43.61906" lon="-1.45431">
        <ele>2.06</ele>
        <time>2014-06-28T15:28:53Z</time>
      </trkpt>
      <trkpt lat="43.61871" lon="-1.45457">
        <ele>1.1</ele>
        <time>2014-06-28T15:29:03Z</time>
      </trkpt>
      <trkpt lat="43.61858" lon="-1.45468">
        <ele>2.06</ele>
        <time>2014-06-28T15:29:12Z</time>
      </trkpt>
      <trkpt lat="43.61841" lon="-1.45479">
        <ele>2.54</ele>
        <time>2014-06-28T15:29:23Z</time>
      </trkpt>
      <trkpt lat="43.61812" lon="-1.45503">
        <ele>2.54</ele>
        <time>2014-06-28T15:29:33Z</time>
      </trkpt>
      <trkpt lat="43.61774" lon="-1.45532">
        <ele>1.58</ele>
        <time>2014-06-28T15:29:45Z</time>
      </trkpt>
      <trkpt lat="43.61735" lon="-1.45564">
        <ele>1.1</ele>
        <time>2014-06-28T15:29:56Z</time>
      </trkpt>
      <trkpt lat="43.61705" lon="-1.4559">
        <ele>2.54</ele>
        <time>2014-06-28T15:30:05Z</time>
      </trkpt>
      <trkpt lat="43.61678" lon="-1.45619">
        <ele>2.54</ele>
        <time>2014-06-28T15:30:14Z</time>
      </trkpt>
      <trkpt lat="43.61651" lon="-1.45646">
        <ele>2.54</ele>
        <time>2014-06-28T15:30:24Z</time>
      </trkpt>
      <trkpt lat="43.61628" lon="-1.45679">
        <ele>1.1</ele>
        <time>2014-06-28T15:30:33Z</time>
      </trkpt>
      <trkpt lat="43.6161" lon="-1.45717">
        <ele>3.02</ele>
        <time>2014-06-28T15:30:43Z</time>
      </trkpt>
      <trkpt lat="43.61595" lon="-1.45729">
        <ele>3.02</ele>
        <time>2014-06-28T15:30:48Z</time>
      </trkpt>
      <trkpt lat="43.61581" lon="-1.45755">
        <ele>2.06</ele>
        <time>2014-06-28T15:30:56Z</time>
      </trkpt>
      <trkpt lat="43.61577" lon="-1.45771">
        <ele>3.98</ele>
        <time>2014-06-28T15:31:01Z</time>
      </trkpt>
      <trkpt lat="43.61567" lon="-1.45786">
        <ele>3.02</ele>
        <time>2014-06-28T15:31:05Z</time>
      </trkpt>
      <trkpt lat="43.61551" lon="-1.45808">
        <ele>1.58</ele>
        <time>2014-06-28T15:31:10Z</time>
      </trkpt>
      <trkpt lat="43.61544" lon="-1.45817">
        <ele>2.06</ele>
        <time>2014-06-28T15:31:12Z</time>
      </trkpt>
      <trkpt lat="43.61535" lon="-1.45827">
        <ele>2.06</ele>
        <time>2014-06-28T15:31:15Z</time>
      </trkpt>
      <trkpt lat="43.61523" lon="-1.45834">
        <ele>2.06</ele>
        <time>2014-06-28T15:31:19Z</time>
      </trkpt>
      <trkpt lat="43.6151" lon="-1.45838">
        <ele>1.1</ele>
        <time>2014-06-28T15:31:22Z</time>
      </trkpt>
      <trkpt lat="43.61469" lon="-1.45851">
        <ele>1.1</ele>
        <time>2014-06-28T15:31:33Z</time>
      </trkpt>
      <trkpt lat="43.61434" lon="-1.45883">
        <ele>2.54</ele>
        <time>2014-06-28T15:31:44Z</time>
      </trkpt>
      <trkpt lat="43.61431" lon="-1.45887">
        <ele>2.54</ele>
        <time>2014-06-28T15:31:45Z</time>
      </trkpt>
      <trkpt lat="43.61423" lon="-1.45894">
        <ele>2.06</ele>
        <time>2014-06-28T15:31:47Z</time>
      </trkpt>
      <trkpt lat="43.61405" lon="-1.45904">
        <ele>1.58</ele>
        <time>2014-06-28T15:31:51Z</time>
      </trkpt>
      <trkpt lat="43.61361" lon="-1.45927">
        <ele>3.02</ele>
        <time>2014-06-28T15:32:03Z</time>
      </trkpt>
      <trkpt lat="43.61328" lon="-1.45939">
        <ele>3.5</ele>
        <time>2014-06-28T15:32:14Z</time>
      </trkpt>
      <trkpt lat="43.61322" lon="-1.45946">
        <ele>2.54</ele>
        <time>2014-06-28T15:32:18Z</time>
      </trkpt>
      <trkpt lat="43.61276" lon="-1.45975">
        <ele>3.02</ele>
        <time>2014-06-28T15:32:30Z</time>
      </trkpt>
      <trkpt lat="43.61222" lon="-1.46007">
        <ele>3.02</ele>
        <time>2014-06-28T15:32:44Z</time>
      </trkpt>
      <trkpt lat="43.6119" lon="-1.46026">
        <ele>2.54</ele>
        <time>2014-06-28T15:32:53Z</time>
      </trkpt>
      <trkpt lat="43.61155" lon="-1.46067">
        <ele>3.5</ele>
        <time>2014-06-28T15:33:04Z</time>
      </trkpt>
      <trkpt lat="43.61118" lon="-1.46091">
        <ele>3.5</ele>
        <time>2014-06-28T15:33:15Z</time>
      </trkpt>
      <trkpt lat="43.61109" lon="-1.46093">
        <ele>2.54</ele>
        <time>2014-06-28T15:33:17Z</time>
      </trkpt>
      <trkpt lat="43.61082" lon="-1.46098">
        <ele>2.06</ele>
        <time>2014-06-28T15:33:24Z</time>
      </trkpt>
      <trkpt lat="43.61071" lon="-1.46106">
        <ele>1.58</ele>
        <time>2014-06-28T15:33:27Z</time>
      </trkpt>
      <trkpt lat="43.61036" lon="-1.46136">
        <ele>1.58</ele>
        <time>2014-06-28T15:33:38Z</time>
      </trkpt>
      <trkpt lat="43.61003" lon="-1.4616">
        <ele>2.54</ele>
        <time>2014-06-28T15:33:48Z</time>
      </trkpt>
      <trkpt lat="43.60972" lon="-1.46178">
        <ele>2.06</ele>
        <time>2014-06-28T15:33:56Z</time>
      </trkpt>
      <trkpt lat="43.60956" lon="-1.4619">
        <ele>2.54</ele>
        <time>2014-06-28T15:34:00Z</time>
      </trkpt>
      <trkpt lat="43.60924" lon="-1.46214">
        <ele>-4.19</ele>
        <time>2014-06-28T15:34:09Z</time>
      </trkpt>
      <trkpt lat="43.60922" lon="-1.46215">
        <ele>2.06</ele>
        <time>2014-06-28T15:34:10Z</time>
      </trkpt>
      <trkpt lat="43.60922" lon="-1.46215">
        <ele>5.91</ele>
        <time>2014-06-28T15:34:11Z</time>
      </trkpt>
      <trkpt lat="43.60922" lon="-1.46215">
        <ele>3.02</ele>
        <time>2014-06-28T15:34:12Z</time>
      </trkpt>
      <trkpt lat="43.60922" lon="-1.46215">
        <ele>-3.23</ele>
        <time>2014-06-28T15:34:13Z</time>
      </trkpt>
      <trkpt lat="43.60921" lon="-1.46215">
        <ele>3.5</ele>
        <time>2014-06-28T15:34:14Z</time>
      </trkpt>
      <trkpt lat="43.60921" lon="-1.46215">
        <ele>-0.82</ele>
        <time>2014-06-28T15:34:17Z</time>
      </trkpt>
      <trkpt lat="43.60921" lon="-1.46215">
        <ele>2.54</ele>
        <time>2014-06-28T15:34:18Z</time>
      </trkpt>
      <trkpt lat="43.60921" lon="-1.46216">
        <ele>3.02</ele>
        <time>2014-06-28T15:34:20Z</time>
      </trkpt>
      <trkpt lat="43.60922" lon="-1.46216">
        <ele>3.02</ele>
        <time>2014-06-28T15:34:23Z</time>
      </trkpt>
      <trkpt lat="43.60933" lon="-1.46207">
        <ele>-5.63</ele>
        <time>2014-06-28T15:34:30Z</time>
      </trkpt>
      <trkpt lat="43.60935" lon="-1.46206">
        <ele>5.91</ele>
        <time>2014-06-28T15:34:31Z</time>
      </trkpt>
      <trkpt lat="43.60937" lon="-1.46205">
        <ele>3.02</ele>
        <time>2014-06-28T15:34:32Z</time>
      </trkpt>
      <trkpt lat="43.60941" lon="-1.46201">
        <ele>3.02</ele>
        <time>2014-06-28T15:34:35Z</time>
      </trkpt>
      <trkpt lat="43.60941" lon="-1.46197">
        <ele>-2.27</ele>
        <time>2014-06-28T15:34:39Z</time>
      </trkpt>
      <trkpt lat="43.60941" lon="-1.46197">
        <ele>3.5</ele>
        <time>2014-06-28T15:34:40Z</time>
      </trkpt>
      <trkpt lat="43.60941" lon="-1.46197">
        <ele>-0.34</ele>
        <time>2014-06-28T15:34:41Z</time>
      </trkpt>
      <trkpt lat="43.60941" lon="-1.46197">
        <ele>4.46</ele>
        <time>2014-06-28T15:34:43Z</time>
      </trkpt>
      <trkpt lat="43.60943" lon="-1.46195">
        <ele>3.02</ele>
        <time>2014-06-28T15:34:51Z</time>
      </trkpt>
      <trkpt lat="43.60953" lon="-1.46191">
        <ele>2.06</ele>
        <time>2014-06-28T15:34:57Z</time>
      </trkpt>
      <trkpt lat="43.60993" lon="-1.46162">
        <ele>1.1</ele>
        <time>2014-06-28T15:35:11Z</time>
      </trkpt>
      <trkpt lat="43.6103" lon="-1.46134">
        <ele>1.58</ele>
        <time>2014-06-28T15:35:22Z</time>
      </trkpt>
      <trkpt lat="43.61049" lon="-1.46117">
        <ele>1.58</ele>
        <time>2014-06-28T15:35:28Z</time>
      </trkpt>
      <trkpt lat="43.61091" lon="-1.46084">
        <ele>3.5</ele>
        <time>2014-06-28T15:35:41Z</time>
      </trkpt>
      <trkpt lat="43.61099" lon="-1.46076">
        <ele>3.5</ele>
        <time>2014-06-28T15:35:44Z</time>
      </trkpt>
      <trkpt lat="43.61101" lon="-1.46049">
        <ele>3.02</ele>
        <time>2014-06-28T15:35:51Z</time>
      </trkpt>
      <trkpt lat="43.61088" lon="-1.45996">
        <ele>3.02</ele>
        <time>2014-06-28T15:36:02Z</time>
      </trkpt>
      <trkpt lat="43.61076" lon="-1.45937">
        <ele>3.5</ele>
        <time>2014-06-28T15:36:14Z</time>
      </trkpt>
      <trkpt lat="43.61066" lon="-1.45883">
        <ele>3.5</ele>
        <time>2014-06-28T15:36:25Z</time>
      </trkpt>
      <trkpt lat="43.61054" lon="-1.45842">
        <ele>5.42</ele>
        <time>2014-06-28T15:36:34Z</time>
      </trkpt>
      <trkpt lat="43.6105" lon="-1.45831">
        <ele>5.91</ele>
        <time>2014-06-28T15:36:37Z</time>
      </trkpt>
      <trkpt lat="43.61051" lon="-1.4582">
        <ele>5.42</ele>
        <time>2014-06-28T15:36:40Z</time>
      </trkpt>
      <trkpt lat="43.61037" lon="-1.45767">
        <ele>3.98</ele>
        <time>2014-06-28T15:36:48Z</time>
      </trkpt>
      <trkpt lat="43.61026" lon="-1.45707">
        <ele>3.02</ele>
        <time>2014-06-28T15:36:58Z</time>
      </trkpt>
      <trkpt lat="43.61016" lon="-1.4566">
        <ele>3.02</ele>
        <time>2014-06-28T15:37:06Z</time>
      </trkpt>
      <trkpt lat="43.61005" lon="-1.45632">
        <ele>4.46</ele>
        <time>2014-06-28T15:37:14Z</time>
      </trkpt>
      <trkpt lat="43.60993" lon="-1.45636">
        <ele>3.5</ele>
        <time>2014-06-28T15:37:19Z</time>
      </trkpt>
      <trkpt lat="43.60984" lon="-1.45635">
        <ele>-0.82</ele>
        <time>2014-06-28T15:37:29Z</time>
      </trkpt>
      <trkpt lat="43.60983" lon="-1.45635">
        <ele>3.98</ele>
        <time>2014-06-28T15:37:30Z</time>
      </trkpt>
      <trkpt lat="43.60981" lon="-1.45635">
        <ele>3.98</ele>
        <time>2014-06-28T15:37:47Z</time>
      </trkpt>
      <trkpt lat="43.60981" lon="-1.45633">
        <ele>3.98</ele>
        <time>2014-06-28T15:37:51Z</time>
      </trkpt>
      <trkpt lat="43.60982" lon="-1.4563">
        <ele>3.5</ele>
        <time>2014-06-28T15:37:53Z</time>
      </trkpt>
      <trkpt lat="43.60995" lon="-1.45617">
        <ele>4.94</ele>
        <time>2014-06-28T15:38:00Z</time>
      </trkpt>
      <trkpt lat="43.60998" lon="-1.45597">
        <ele>3.98</ele>
        <time>2014-06-28T15:38:10Z</time>
      </trkpt>
      <trkpt lat="43.60999" lon="-1.45595">
        <ele>4.46</ele>
        <time>2014-06-28T15:38:20Z</time>
      </trkpt>
      <trkpt lat="43.60997" lon="-1.45595">
        <ele>5.42</ele>
        <time>2014-06-28T15:38:33Z</time>
      </trkpt>
      <trkpt lat="43.60991" lon="-1.45596">
        <ele>3.98</ele>
        <time>2014-06-28T15:38:37Z</time>
      </trkpt>
      <trkpt lat="43.60983" lon="-1.45598">
        <ele>4.46</ele>
        <time>2014-06-28T15:38:40Z</time>
      </trkpt>
      <trkpt lat="43.60976" lon="-1.45602">
        <ele>4.94</ele>
        <time>2014-06-28T15:38:43Z</time>
      </trkpt>
      <trkpt lat="43.6096" lon="-1.45602">
        <ele>4.46</ele>
        <time>2014-06-28T15:38:47Z</time>
      </trkpt>
      <trkpt lat="43.6094" lon="-1.45596">
        <ele>3.98</ele>
        <time>2014-06-28T15:38:52Z</time>
      </trkpt>
      <trkpt lat="43.60926" lon="-1.45607">
        <ele>4.46</ele>
        <time>2014-06-28T15:38:57Z</time>
      </trkpt>
      <trkpt lat="43.60916" lon="-1.45585">
        <ele>4.46</ele>
        <time>2014-06-28T15:39:04Z</time>
      </trkpt>
      <trkpt lat="43.60898" lon="-1.45569">
        <ele>3.98</ele>
        <time>2014-06-28T15:39:09Z</time>
      </trkpt>
      <trkpt lat="43.6088" lon="-1.45543">
        <ele>3.5</ele>
        <time>2014-06-28T15:39:16Z</time>
      </trkpt>
      <trkpt lat="43.60876" lon="-1.45541">
        <ele>3.02</ele>
        <time>2014-06-28T15:39:17Z</time>
      </trkpt>
      <trkpt lat="43.60865" lon="-1.45538">
        <ele>3.02</ele>
        <time>2014-06-28T15:39:20Z</time>
      </trkpt>
      <trkpt lat="43.60837" lon="-1.45526">
        <ele>3.5</ele>
        <time>2014-06-28T15:39:30Z</time>
      </trkpt>
      <trkpt lat="43.60833" lon="-1.45526">
        <ele>3.5</ele>
        <time>2014-06-28T15:39:31Z</time>
      </trkpt>
      <trkpt lat="43.60816" lon="-1.45523">
        <ele>3.5</ele>
        <time>2014-06-28T15:39:35Z</time>
      </trkpt>
      <trkpt lat="43.608" lon="-1.45523">
        <ele>3.5</ele>
        <time>2014-06-28T15:39:39Z</time>
      </trkpt>
      <trkpt lat="43.60787" lon="-1.45543">
        <ele>3.98</ele>
        <time>2014-06-28T15:39:45Z</time>
      </trkpt>
      <trkpt lat="43.60763" lon="-1.4556">
        <ele>3.5</ele>
        <time>2014-06-28T15:39:56Z</time>
      </trkpt>
      <trkpt lat="43.60752" lon="-1.45565">
        <ele>2.54</ele>
        <time>2014-06-28T15:40:04Z</time>
      </trkpt>
      <trkpt lat="43.60719" lon="-1.45578">
        <ele>1.58</ele>
        <time>2014-06-28T15:40:16Z</time>
      </trkpt>
      <trkpt lat="43.60713" lon="-1.45577">
        <ele>1.58</ele>
        <time>2014-06-28T15:40:18Z</time>
      </trkpt>
      <trkpt lat="43.60705" lon="-1.45575">
        <ele>2.06</ele>
        <time>2014-06-28T15:40:21Z</time>
      </trkpt>
      <trkpt lat="43.60685" lon="-1.45556">
        <ele>2.54</ele>
        <time>2014-06-28T15:40:26Z</time>
      </trkpt>
      <trkpt lat="43.60656" lon="-1.45578">
        <ele>3.02</ele>
        <time>2014-06-28T15:40:34Z</time>
      </trkpt>
      <trkpt lat="43.60639" lon="-1.45593">
        <ele>1.58</ele>
        <time>2014-06-28T15:40:39Z</time>
      </trkpt>
      <trkpt lat="43.60623" lon="-1.45604">
        <ele>2.54</ele>
        <time>2014-06-28T15:40:44Z</time>
      </trkpt>
      <trkpt lat="43.60591" lon="-1.45639">
        <ele>3.5</ele>
        <time>2014-06-28T15:40:53Z</time>
      </trkpt>
      <trkpt lat="43.60578" lon="-1.4564">
        <ele>3.5</ele>
        <time>2014-06-28T15:40:58Z</time>
      </trkpt>
      <trkpt lat="43.60568" lon="-1.4564">
        <ele>5.42</ele>
        <time>2014-06-28T15:41:06Z</time>
      </trkpt>
      <trkpt lat="43.60552" lon="-1.4566">
        <ele>3.02</ele>
        <time>2014-06-28T15:41:14Z</time>
      </trkpt>
      <trkpt lat="43.60536" lon="-1.45678">
        <ele>3.02</ele>
        <time>2014-06-28T15:41:19Z</time>
      </trkpt>
      <trkpt lat="43.60512" lon="-1.45714">
        <ele>2.54</ele>
        <time>2014-06-28T15:41:26Z</time>
      </trkpt>
      <trkpt lat="43.60504" lon="-1.45729">
        <ele>2.06</ele>
        <time>2014-06-28T15:41:36Z</time>
      </trkpt>
      <trkpt lat="43.60502" lon="-1.45741">
        <ele>1.58</ele>
        <time>2014-06-28T15:41:52Z</time>
      </trkpt>
      <trkpt lat="43.60502" lon="-1.45744">
        <ele>1.1</ele>
        <time>2014-06-28T15:41:53Z</time>
      </trkpt>
      <trkpt lat="43.60484" lon="-1.45779">
        <ele>1.58</ele>
        <time>2014-06-28T15:42:01Z</time>
      </trkpt>
      <trkpt lat="43.60478" lon="-1.45781">
        <ele>2.06</ele>
        <time>2014-06-28T15:42:03Z</time>
      </trkpt>
      <trkpt lat="43.60467" lon="-1.45785">
        <ele>2.54</ele>
        <time>2014-06-28T15:42:06Z</time>
      </trkpt>
      <trkpt lat="43.60437" lon="-1.4579">
        <ele>1.58</ele>
        <time>2014-06-28T15:42:12Z</time>
      </trkpt>
      <trkpt lat="43.6039" lon="-1.45783">
        <ele>2.06</ele>
        <time>2014-06-28T15:42:22Z</time>
      </trkpt>
      <trkpt lat="43.60385" lon="-1.45782">
        <ele>2.54</ele>
        <time>2014-06-28T15:42:23Z</time>
      </trkpt>
      <trkpt lat="43.60358" lon="-1.45777">
        <ele>1.1</ele>
        <time>2014-06-28T15:42:28Z</time>
      </trkpt>
      <trkpt lat="43.60336" lon="-1.45786">
        <ele>1.1</ele>
        <time>2014-06-28T15:42:33Z</time>
      </trkpt>
      <trkpt lat="43.60327" lon="-1.45794">
        <ele>2.06</ele>
        <time>2014-06-28T15:42:35Z</time>
      </trkpt>
      <trkpt lat="43.6031" lon="-1.45812">
        <ele>1.58</ele>
        <time>2014-06-28T15:42:39Z</time>
      </trkpt>
      <trkpt lat="43.60306" lon="-1.45827">
        <ele>1.58</ele>
        <time>2014-06-28T15:42:42Z</time>
      </trkpt>
      <trkpt lat="43.60295" lon="-1.45851">
        <ele>1.58</ele>
        <time>2014-06-28T15:42:46Z</time>
      </trkpt>
      <trkpt lat="43.6029" lon="-1.45862">
        <ele>2.06</ele>
        <time>2014-06-28T15:42:48Z</time>
      </trkpt>
      <trkpt lat="43.60284" lon="-1.45889">
        <ele>2.06</ele>
        <time>2014-06-28T15:42:55Z</time>
      </trkpt>
      <trkpt lat="43.60279" lon="-1.45894">
        <ele>1.58</ele>
        <time>2014-06-28T15:43:12Z</time>
      </trkpt>
      <trkpt lat="43.60279" lon="-1.45895">
        <ele>3.02</ele>
        <time>2014-06-28T15:43:15Z</time>
      </trkpt>
      <trkpt lat="43.60287" lon="-1.45889">
        <ele>3.98</ele>
        <time>2014-06-28T15:43:26Z</time>
      </trkpt>
      <trkpt lat="43.60289" lon="-1.45888">
        <ele>4.46</ele>
        <time>2014-06-28T15:43:29Z</time>
      </trkpt>
      <trkpt lat="43.60306" lon="-1.45865">
        <ele>3.5</ele>
        <time>2014-06-28T15:43:38Z</time>
      </trkpt>
      <trkpt lat="43.60331" lon="-1.45853">
        <ele>3.5</ele>
        <time>2014-06-28T15:43:44Z</time>
      </trkpt>
      <trkpt lat="43.6035" lon="-1.45839">
        <ele>3.5</ele>
        <time>2014-06-28T15:43:49Z</time>
      </trkpt>
      <trkpt lat="43.60364" lon="-1.45847">
        <ele>4.46</ele>
        <time>2014-06-28T15:43:53Z</time>
      </trkpt>
      <trkpt lat="43.60377" lon="-1.45889">
        <ele>3.02</ele>
        <time>2014-06-28T15:44:01Z</time>
      </trkpt>
      <trkpt lat="43.60388" lon="-1.45891">
        <ele>3.5</ele>
        <time>2014-06-28T15:44:05Z</time>
      </trkpt>
      <trkpt lat="43.60401" lon="-1.45884">
        <ele>3.5</ele>
        <time>2014-06-28T15:44:09Z</time>
      </trkpt>
      <trkpt lat="43.60407" lon="-1.45901">
        <ele>2.54</ele>
        <time>2014-06-28T15:44:14Z</time>
      </trkpt>
      <trkpt lat="43.60403" lon="-1.45919">
        <ele>3.02</ele>
        <time>2014-06-28T15:44:17Z</time>
      </trkpt>
      <trkpt lat="43.60396" lon="-1.45939">
        <ele>2.54</ele>
        <time>2014-06-28T15:44:21Z</time>
      </trkpt>
      <trkpt lat="43.60403" lon="-1.45958">
        <ele>3.5</ele>
        <time>2014-06-28T15:44:25Z</time>
      </trkpt>
      <trkpt lat="43.60419" lon="-1.45995">
        <ele>3.5</ele>
        <time>2014-06-28T15:44:33Z</time>
      </trkpt>
      <trkpt lat="43.60401" lon="-1.46026">
        <ele>4.46</ele>
        <time>2014-06-28T15:44:39Z</time>
      </trkpt>
      <trkpt lat="43.60404" lon="-1.46041">
        <ele>3.5</ele>
        <time>2014-06-28T15:44:43Z</time>
      </trkpt>
      <trkpt lat="43.60402" lon="-1.46081">
        <ele>3.98</ele>
        <time>2014-06-28T15:44:50Z</time>
      </trkpt>
      <trkpt lat="43.60406" lon="-1.461">
        <ele>5.42</ele>
        <time>2014-06-28T15:44:54Z</time>
      </trkpt>
      <trkpt lat="43.6042" lon="-1.46132">
        <ele>5.42</ele>
        <time>2014-06-28T15:45:02Z</time>
      </trkpt>
      <trkpt lat="43.60421" lon="-1.46137">
        <ele>4.94</ele>
        <time>2014-06-28T15:45:03Z</time>
      </trkpt>
      <trkpt lat="43.60436" lon="-1.46186">
        <ele>5.42</ele>
        <time>2014-06-28T15:45:13Z</time>
      </trkpt>
      <trkpt lat="43.60447" lon="-1.46218">
        <ele>6.87</ele>
        <time>2014-06-28T15:45:20Z</time>
      </trkpt>
      <trkpt lat="43.60452" lon="-1.46238">
        <ele>6.87</ele>
        <time>2014-06-28T15:45:24Z</time>
      </trkpt>
      <trkpt lat="43.60463" lon="-1.46266">
        <ele>4.94</ele>
        <time>2014-06-28T15:45:30Z</time>
      </trkpt>
      <trkpt lat="43.60468" lon="-1.46281">
        <ele>5.42</ele>
        <time>2014-06-28T15:45:33Z</time>
      </trkpt>
      <trkpt lat="43.60476" lon="-1.46303">
        <ele>3.98</ele>
        <time>2014-06-28T15:45:36Z</time>
      </trkpt>
      <trkpt lat="43.60479" lon="-1.46313">
        <ele>5.42</ele>
        <time>2014-06-28T15:45:38Z</time>
      </trkpt>
      <trkpt lat="43.60476" lon="-1.46319">
        <ele>6.39</ele>
        <time>2014-06-28T15:45:40Z</time>
      </trkpt>
      <trkpt lat="43.60466" lon="-1.46331">
        <ele>4.94</ele>
        <time>2014-06-28T15:45:44Z</time>
      </trkpt>
      <trkpt lat="43.60457" lon="-1.46344">
        <ele>3.5</ele>
        <time>2014-06-28T15:45:47Z</time>
      </trkpt>
      <trkpt lat="43.60454" lon="-1.46349">
        <ele>3.02</ele>
        <time>2014-06-28T15:45:48Z</time>
      </trkpt>
      <trkpt lat="43.60457" lon="-1.46378">
        <ele>3.5</ele>
        <time>2014-06-28T15:45:55Z</time>
      </trkpt>
      <trkpt lat="43.60467" lon="-1.46397">
        <ele>3.02</ele>
        <time>2014-06-28T15:46:01Z</time>
      </trkpt>
      <trkpt lat="43.60464" lon="-1.46425">
        <ele>2.54</ele>
        <time>2014-06-28T15:46:06Z</time>
      </trkpt>
      <trkpt lat="43.60458" lon="-1.46445">
        <ele>3.02</ele>
        <time>2014-06-28T15:46:10Z</time>
      </trkpt>
      <trkpt lat="43.60452" lon="-1.46484">
        <ele>3.5</ele>
        <time>2014-06-28T15:46:18Z</time>
      </trkpt>
      <trkpt lat="43.60461" lon="-1.46506">
        <ele>3.5</ele>
        <time>2014-06-28T15:46:23Z</time>
      </trkpt>
      <trkpt lat="43.6047" lon="-1.46532">
        <ele>4.94</ele>
        <time>2014-06-28T15:46:33Z</time>
      </trkpt>
      <trkpt lat="43.60471" lon="-1.46534">
        <ele>4.46</ele>
        <time>2014-06-28T15:46:56Z</time>
      </trkpt>
      <trkpt lat="43.60472" lon="-1.46535">
        <ele>3.5</ele>
        <time>2014-06-28T15:47:22Z</time>
      </trkpt>
      <trkpt lat="43.60472" lon="-1.46536">
        <ele>3.98</ele>
        <time>2014-06-28T15:47:30Z</time>
      </trkpt>
      <trkpt lat="43.60451" lon="-1.46559">
        <ele>3.02</ele>
        <time>2014-06-28T15:47:42Z</time>
      </trkpt>
      <trkpt lat="43.60415" lon="-1.46587">
        <ele>3.5</ele>
        <time>2014-06-28T15:47:54Z</time>
      </trkpt>
      <trkpt lat="43.6041" lon="-1.46594">
        <ele>2.06</ele>
        <time>2014-06-28T15:47:56Z</time>
      </trkpt>
      <trkpt lat="43.60381" lon="-1.46615">
        <ele>-0.34</ele>
        <time>2014-06-28T15:48:05Z</time>
      </trkpt>
      <trkpt lat="43.60378" lon="-1.46618">
        <ele>2.54</ele>
        <time>2014-06-28T15:48:06Z</time>
      </trkpt>
      <trkpt lat="43.60368" lon="-1.46631">
        <ele>1.58</ele>
        <time>2014-06-28T15:48:10Z</time>
      </trkpt>
      <trkpt lat="43.60331" lon="-1.46658">
        <ele>2.54</ele>
        <time>2014-06-28T15:48:23Z</time>
      </trkpt>
      <trkpt lat="43.60306" lon="-1.46675">
        <ele>4.46</ele>
        <time>2014-06-28T15:48:31Z</time>
      </trkpt>
      <trkpt lat="43.60277" lon="-1.46697">
        <ele>4.46</ele>
        <time>2014-06-28T15:48:40Z</time>
      </trkpt>
      <trkpt lat="43.60205" lon="-1.46753">
        <ele>4.94</ele>
        <time>2014-06-28T15:48:57Z</time>
      </trkpt>
      <trkpt lat="43.60188" lon="-1.46767">
        <ele>5.42</ele>
        <time>2014-06-28T15:49:01Z</time>
      </trkpt>
      <trkpt lat="43.60132" lon="-1.4681">
        <ele>3.98</ele>
        <time>2014-06-28T15:49:13Z</time>
      </trkpt>
      <trkpt lat="43.60072" lon="-1.46854">
        <ele>7.35</ele>
        <time>2014-06-28T15:49:28Z</time>
      </trkpt>
      <trkpt lat="43.6002" lon="-1.46893">
        <ele>5.91</ele>
        <time>2014-06-28T15:49:40Z</time>
      </trkpt>
      <trkpt lat="43.60008" lon="-1.46904">
        <ele>6.87</ele>
        <time>2014-06-28T15:49:43Z</time>
      </trkpt>
      <trkpt lat="43.59985" lon="-1.4692">
        <ele>5.42</ele>
        <time>2014-06-28T15:49:49Z</time>
      </trkpt>
      <trkpt lat="43.59938" lon="-1.46957">
        <ele>4.94</ele>
        <time>2014-06-28T15:50:01Z</time>
      </trkpt>
      <trkpt lat="43.59932" lon="-1.46964">
        <ele>4.46</ele>
        <time>2014-06-28T15:50:03Z</time>
      </trkpt>
      <trkpt lat="43.59893" lon="-1.46992">
        <ele>3.98</ele>
        <time>2014-06-28T15:50:12Z</time>
      </trkpt>
      <trkpt lat="43.59882" lon="-1.47031">
        <ele>2.06</ele>
        <time>2014-06-28T15:50:20Z</time>
      </trkpt>
      <trkpt lat="43.59889" lon="-1.47059">
        <ele>5.91</ele>
        <time>2014-06-28T15:50:28Z</time>
      </trkpt>
      <trkpt lat="43.5989" lon="-1.47062">
        <ele>5.42</ele>
        <time>2014-06-28T15:50:29Z</time>
      </trkpt>
      <trkpt lat="43.5991" lon="-1.47079">
        <ele>8.79</ele>
        <time>2014-06-28T15:50:39Z</time>
      </trkpt>
      <trkpt lat="43.59912" lon="-1.47081">
        <ele>8.31</ele>
        <time>2014-06-28T15:50:40Z</time>
      </trkpt>
      <trkpt lat="43.59916" lon="-1.47084">
        <ele>10.71</ele>
        <time>2014-06-28T15:50:42Z</time>
      </trkpt>
      <trkpt lat="43.59922" lon="-1.47095">
        <ele>6.39</ele>
        <time>2014-06-28T15:50:51Z</time>
      </trkpt>
      <trkpt lat="43.59918" lon="-1.47093">
        <ele>7.83</ele>
        <time>2014-06-28T15:50:57Z</time>
      </trkpt>
      <trkpt lat="43.5992" lon="-1.47086">
        <ele>7.83</ele>
        <time>2014-06-28T15:51:09Z</time>
      </trkpt>
      <trkpt lat="43.59921" lon="-1.47086">
        <ele>3.5</ele>
        <time>2014-06-28T15:51:18Z</time>
      </trkpt>
      <trkpt lat="43.59921" lon="-1.47086">
        <ele>7.83</ele>
        <time>2014-06-28T15:51:21Z</time>
      </trkpt>
      <trkpt lat="43.59921" lon="-1.47086">
        <ele>2.54</ele>
        <time>2014-06-28T15:51:22Z</time>
      </trkpt>
      <trkpt lat="43.59921" lon="-1.47086">
        <ele>7.83</ele>
        <time>2014-06-28T15:51:23Z</time>
      </trkpt>
      <trkpt lat="43.59921" lon="-1.47086">
        <ele>9.75</ele>
        <time>2014-06-28T15:51:26Z</time>
      </trkpt>
      <trkpt lat="43.59921" lon="-1.47086">
        <ele>5.42</ele>
        <time>2014-06-28T15:51:27Z</time>
      </trkpt>
      <trkpt lat="43.59921" lon="-1.47086">
        <ele>7.83</ele>
        <time>2014-06-28T15:51:28Z</time>
      </trkpt>
    </trkseg>
  </trk>
</gpx>